<?xml version="1.0" encoding="UTF-8" standalone="no" ?>
<gpx xmlns="http://www.topografix.com/GPX/1/1" xmlns:xsi="http://www.w3.org/2001/XMLSchema-instance" xsi:schemaLocation="http://www.topografix.com/GPX/1/1 http://www.topografix.com/GPX/1/1/gpx.xsd" version="1.1" creator="VisuGPX - https://www.visugpx.com">
  <metadata>
    <name>Circuit Fete des cagouilles 2019-05-05</name>
    <desc><![CDATA[File with points/tracks from Locus Map/3.36.2]]></desc>
  </metadata>
  <trk>
    <name><![CDATA[2019-05-05 09:06:42]]></name>
    <desc><![CDATA[vtt 13. 5 bertric cagouille]]></desc>
    <trkseg>
      <trkpt lat="45.30547" lon="0.35927">
        <ele>224.65</ele>
        <time>2019-05-05T07:06:43.999Z</time>
      </trkpt>
      <trkpt lat="45.30556" lon="0.35927">
        <ele>225.16</ele>
        <time>2019-05-05T07:11:00.999Z</time>
      </trkpt>
      <trkpt lat="45.30565" lon="0.35925">
        <ele>224.98</ele>
        <time>2019-05-05T07:11:06.999Z</time>
      </trkpt>
      <trkpt lat="45.30576" lon="0.35924">
        <ele>224.79</ele>
        <time>2019-05-05T07:11:12.999Z</time>
      </trkpt>
      <trkpt lat="45.30588" lon="0.35921">
        <ele>224.67</ele>
        <time>2019-05-05T07:11:17.999Z</time>
      </trkpt>
      <trkpt lat="45.30603" lon="0.35916">
        <ele>224.37</ele>
        <time>2019-05-05T07:11:22.999Z</time>
      </trkpt>
      <trkpt lat="45.30619" lon="0.35913">
        <ele>223.97</ele>
        <time>2019-05-05T07:11:27.999Z</time>
      </trkpt>
      <trkpt lat="45.30634" lon="0.35909">
        <ele>224.03</ele>
        <time>2019-05-05T07:11:32.999Z</time>
      </trkpt>
      <trkpt lat="45.30649" lon="0.35905">
        <ele>223.46</ele>
        <time>2019-05-05T07:11:37.999Z</time>
      </trkpt>
      <trkpt lat="45.30664" lon="0.359">
        <ele>222.99</ele>
        <time>2019-05-05T07:11:42.999Z</time>
      </trkpt>
      <trkpt lat="45.30681" lon="0.35895">
        <ele>222.34</ele>
        <time>2019-05-05T07:11:47.999Z</time>
      </trkpt>
      <trkpt lat="45.30695" lon="0.3589">
        <ele>221.67</ele>
        <time>2019-05-05T07:11:52.999Z</time>
      </trkpt>
      <trkpt lat="45.30711" lon="0.3589">
        <ele>220.52</ele>
        <time>2019-05-05T07:11:57.999Z</time>
      </trkpt>
      <trkpt lat="45.30729" lon="0.35902">
        <ele>217.85</ele>
        <time>2019-05-05T07:12:02.999Z</time>
      </trkpt>
      <trkpt lat="45.3074" lon="0.35922">
        <ele>216.52</ele>
        <time>2019-05-05T07:12:07.999Z</time>
      </trkpt>
      <trkpt lat="45.30746" lon="0.35943">
        <ele>216.29</ele>
        <time>2019-05-05T07:12:12.999Z</time>
      </trkpt>
      <trkpt lat="45.30752" lon="0.35967">
        <ele>215.94</ele>
        <time>2019-05-05T07:12:17.999Z</time>
      </trkpt>
      <trkpt lat="45.30758" lon="0.35993">
        <ele>215.48</ele>
        <time>2019-05-05T07:12:22.999Z</time>
      </trkpt>
      <trkpt lat="45.30762" lon="0.36017">
        <ele>215.05</ele>
        <time>2019-05-05T07:12:27.999Z</time>
      </trkpt>
      <trkpt lat="45.30766" lon="0.3604">
        <ele>214.69</ele>
        <time>2019-05-05T07:12:32.999Z</time>
      </trkpt>
      <trkpt lat="45.3077" lon="0.36061">
        <ele>214.45</ele>
        <time>2019-05-05T07:12:37.999Z</time>
      </trkpt>
      <trkpt lat="45.30774" lon="0.3608">
        <ele>214.13</ele>
        <time>2019-05-05T07:12:42.999Z</time>
      </trkpt>
      <trkpt lat="45.30779" lon="0.36103">
        <ele>213.71</ele>
        <time>2019-05-05T07:12:47.999Z</time>
      </trkpt>
      <trkpt lat="45.30782" lon="0.36126">
        <ele>213.41</ele>
        <time>2019-05-05T07:12:52.999Z</time>
      </trkpt>
      <trkpt lat="45.30784" lon="0.36145">
        <ele>212.99</ele>
        <time>2019-05-05T07:12:57.999Z</time>
      </trkpt>
      <trkpt lat="45.30782" lon="0.36164">
        <ele>212.81</ele>
        <time>2019-05-05T07:13:02.999Z</time>
      </trkpt>
      <trkpt lat="45.3078" lon="0.36181">
        <ele>212.85</ele>
        <time>2019-05-05T07:13:07.999Z</time>
      </trkpt>
      <trkpt lat="45.30776" lon="0.36195">
        <ele>213.04</ele>
        <time>2019-05-05T07:13:12.999Z</time>
      </trkpt>
      <trkpt lat="45.3078" lon="0.36207">
        <ele>213.1</ele>
        <time>2019-05-05T07:13:17.999Z</time>
      </trkpt>
      <trkpt lat="45.3078" lon="0.36221">
        <ele>212.95</ele>
        <time>2019-05-05T07:13:23.999Z</time>
      </trkpt>
      <trkpt lat="45.30773" lon="0.3624">
        <ele>212.95</ele>
        <time>2019-05-05T07:13:28.999Z</time>
      </trkpt>
      <trkpt lat="45.30776" lon="0.36258">
        <ele>212.84</ele>
        <time>2019-05-05T07:13:33.999Z</time>
      </trkpt>
      <trkpt lat="45.30792" lon="0.36269">
        <ele>212.89</ele>
        <time>2019-05-05T07:13:38.999Z</time>
      </trkpt>
      <trkpt lat="45.30811" lon="0.3628">
        <ele>213.08</ele>
        <time>2019-05-05T07:13:43.999Z</time>
      </trkpt>
      <trkpt lat="45.30844" lon="0.36308">
        <ele>208.03</ele>
        <time>2019-05-05T07:13:55.314Z</time>
      </trkpt>
      <trkpt lat="45.30872" lon="0.36313">
        <ele>199.93</ele>
        <time>2019-05-05T07:13:59.875Z</time>
      </trkpt>
      <trkpt lat="45.30879" lon="0.36323">
        <ele>209.96</ele>
        <time>2019-05-05T07:14:04.876Z</time>
      </trkpt>
      <trkpt lat="45.30893" lon="0.36331">
        <ele>205.22</ele>
        <time>2019-05-05T07:14:08.999Z</time>
      </trkpt>
      <trkpt lat="45.30904" lon="0.3634">
        <ele>207.03</ele>
        <time>2019-05-05T07:14:13.999Z</time>
      </trkpt>
      <trkpt lat="45.30913" lon="0.36349">
        <ele>205.67</ele>
        <time>2019-05-05T07:14:18.999Z</time>
      </trkpt>
      <trkpt lat="45.30914" lon="0.36363">
        <ele>209.72</ele>
        <time>2019-05-05T07:14:23.999Z</time>
      </trkpt>
      <trkpt lat="45.30904" lon="0.36379">
        <ele>216</ele>
        <time>2019-05-05T07:14:28.999Z</time>
      </trkpt>
      <trkpt lat="45.3089" lon="0.36376">
        <ele>217.77</ele>
        <time>2019-05-05T07:14:33.999Z</time>
      </trkpt>
      <trkpt lat="45.30874" lon="0.36365">
        <ele>217.71</ele>
        <time>2019-05-05T07:14:38.999Z</time>
      </trkpt>
      <trkpt lat="45.30858" lon="0.36354">
        <ele>217.41</ele>
        <time>2019-05-05T07:14:43.999Z</time>
      </trkpt>
      <trkpt lat="45.30843" lon="0.36342">
        <ele>216.86</ele>
        <time>2019-05-05T07:14:48.999Z</time>
      </trkpt>
      <trkpt lat="45.30831" lon="0.36341">
        <ele>216.38</ele>
        <time>2019-05-05T07:14:53.999Z</time>
      </trkpt>
      <trkpt lat="45.30821" lon="0.36365">
        <ele>214.09</ele>
        <time>2019-05-05T07:14:58.999Z</time>
      </trkpt>
      <trkpt lat="45.30812" lon="0.36392">
        <ele>211.39</ele>
        <time>2019-05-05T07:15:03.999Z</time>
      </trkpt>
      <trkpt lat="45.30804" lon="0.3642">
        <ele>211.81</ele>
        <time>2019-05-05T07:15:08.999Z</time>
      </trkpt>
      <trkpt lat="45.30798" lon="0.36458">
        <ele>212.72</ele>
        <time>2019-05-05T07:15:13.999Z</time>
      </trkpt>
      <trkpt lat="45.30795" lon="0.365">
        <ele>212.56</ele>
        <time>2019-05-05T07:15:18.999Z</time>
      </trkpt>
      <trkpt lat="45.30794" lon="0.36544">
        <ele>209.72</ele>
        <time>2019-05-05T07:15:23.999Z</time>
      </trkpt>
      <trkpt lat="45.30793" lon="0.36585">
        <ele>207.79</ele>
        <time>2019-05-05T07:15:28.999Z</time>
      </trkpt>
      <trkpt lat="45.30793" lon="0.36623">
        <ele>207.04</ele>
        <time>2019-05-05T07:15:33.999Z</time>
      </trkpt>
      <trkpt lat="45.30796" lon="0.36665">
        <ele>206.39</ele>
        <time>2019-05-05T07:15:38.999Z</time>
      </trkpt>
      <trkpt lat="45.30802" lon="0.36705">
        <ele>205.17</ele>
        <time>2019-05-05T07:15:43.999Z</time>
      </trkpt>
      <trkpt lat="45.30807" lon="0.36743">
        <ele>204.74</ele>
        <time>2019-05-05T07:15:48.999Z</time>
      </trkpt>
      <trkpt lat="45.30813" lon="0.36782">
        <ele>203.28</ele>
        <time>2019-05-05T07:15:53.999Z</time>
      </trkpt>
      <trkpt lat="45.30819" lon="0.36825">
        <ele>202.51</ele>
        <time>2019-05-05T07:15:58.999Z</time>
      </trkpt>
      <trkpt lat="45.30826" lon="0.36867">
        <ele>203.39</ele>
        <time>2019-05-05T07:16:03.999Z</time>
      </trkpt>
      <trkpt lat="45.30834" lon="0.36914">
        <ele>202.55</ele>
        <time>2019-05-05T07:16:08.999Z</time>
      </trkpt>
      <trkpt lat="45.30844" lon="0.36967">
        <ele>198.41</ele>
        <time>2019-05-05T07:16:13.999Z</time>
      </trkpt>
      <trkpt lat="45.30855" lon="0.3702">
        <ele>193.41</ele>
        <time>2019-05-05T07:16:18.999Z</time>
      </trkpt>
      <trkpt lat="45.30868" lon="0.37061">
        <ele>191.02</ele>
        <time>2019-05-05T07:16:23.999Z</time>
      </trkpt>
      <trkpt lat="45.30875" lon="0.37089">
        <ele>190.46</ele>
        <time>2019-05-05T07:16:28.999Z</time>
      </trkpt>
      <trkpt lat="45.3088" lon="0.37108">
        <ele>190.46</ele>
        <time>2019-05-05T07:16:33.999Z</time>
      </trkpt>
      <trkpt lat="45.30886" lon="0.3712">
        <ele>190.26</ele>
        <time>2019-05-05T07:16:38.999Z</time>
      </trkpt>
      <trkpt lat="45.30895" lon="0.37128">
        <ele>189.72</ele>
        <time>2019-05-05T07:16:46.999Z</time>
      </trkpt>
      <trkpt lat="45.30901" lon="0.37139">
        <ele>191.54</ele>
        <time>2019-05-05T07:17:09.999Z</time>
      </trkpt>
      <trkpt lat="45.30902" lon="0.37152">
        <ele>192.66</ele>
        <time>2019-05-05T07:17:17.999Z</time>
      </trkpt>
      <trkpt lat="45.30908" lon="0.37164">
        <ele>193.14</ele>
        <time>2019-05-05T07:17:23.999Z</time>
      </trkpt>
      <trkpt lat="45.30917" lon="0.37178">
        <ele>193.57</ele>
        <time>2019-05-05T07:17:28.999Z</time>
      </trkpt>
      <trkpt lat="45.30926" lon="0.37197">
        <ele>193.95</ele>
        <time>2019-05-05T07:17:33.999Z</time>
      </trkpt>
      <trkpt lat="45.30932" lon="0.37213">
        <ele>194.27</ele>
        <time>2019-05-05T07:17:38.999Z</time>
      </trkpt>
      <trkpt lat="45.30939" lon="0.37224">
        <ele>194.36</ele>
        <time>2019-05-05T07:17:43.999Z</time>
      </trkpt>
      <trkpt lat="45.30947" lon="0.37233">
        <ele>194.79</ele>
        <time>2019-05-05T07:17:48.999Z</time>
      </trkpt>
      <trkpt lat="45.30958" lon="0.37234">
        <ele>194.89</ele>
        <time>2019-05-05T07:17:53.999Z</time>
      </trkpt>
      <trkpt lat="45.30968" lon="0.37234">
        <ele>194.58</ele>
        <time>2019-05-05T07:18:06.999Z</time>
      </trkpt>
      <trkpt lat="45.30977" lon="0.37242">
        <ele>193.87</ele>
        <time>2019-05-05T07:18:11.999Z</time>
      </trkpt>
      <trkpt lat="45.30985" lon="0.37249">
        <ele>193.16</ele>
        <time>2019-05-05T07:18:20.999Z</time>
      </trkpt>
      <trkpt lat="45.30991" lon="0.37258">
        <ele>190.64</ele>
        <time>2019-05-05T07:18:42.000Z</time>
      </trkpt>
      <trkpt lat="45.30997" lon="0.37269">
        <ele>191.63</ele>
        <time>2019-05-05T07:18:56.000Z</time>
      </trkpt>
      <trkpt lat="45.31002" lon="0.37279">
        <ele>193.53</ele>
        <time>2019-05-05T07:19:06.000Z</time>
      </trkpt>
      <trkpt lat="45.3101" lon="0.37287">
        <ele>194.1</ele>
        <time>2019-05-05T07:19:12.000Z</time>
      </trkpt>
      <trkpt lat="45.31017" lon="0.37295">
        <ele>195.21</ele>
        <time>2019-05-05T07:19:23.000Z</time>
      </trkpt>
      <trkpt lat="45.31025" lon="0.37302">
        <ele>196.02</ele>
        <time>2019-05-05T07:19:33.000Z</time>
      </trkpt>
      <trkpt lat="45.3103" lon="0.37313">
        <ele>195.73</ele>
        <time>2019-05-05T07:19:42.000Z</time>
      </trkpt>
      <trkpt lat="45.31035" lon="0.37325">
        <ele>194.57</ele>
        <time>2019-05-05T07:20:04.000Z</time>
      </trkpt>
      <trkpt lat="45.3104" lon="0.37336">
        <ele>194.9</ele>
        <time>2019-05-05T07:20:16.000Z</time>
      </trkpt>
      <trkpt lat="45.31049" lon="0.37345">
        <ele>196</ele>
        <time>2019-05-05T07:20:26.000Z</time>
      </trkpt>
      <trkpt lat="45.31057" lon="0.37351">
        <ele>198.48</ele>
        <time>2019-05-05T07:20:48.000Z</time>
      </trkpt>
      <trkpt lat="45.31062" lon="0.37363">
        <ele>199.73</ele>
        <time>2019-05-05T07:21:01.000Z</time>
      </trkpt>
      <trkpt lat="45.31064" lon="0.37376">
        <ele>200.87</ele>
        <time>2019-05-05T07:21:13.000Z</time>
      </trkpt>
      <trkpt lat="45.31069" lon="0.3739">
        <ele>201.22</ele>
        <time>2019-05-05T07:21:24.000Z</time>
      </trkpt>
      <trkpt lat="45.31076" lon="0.37398">
        <ele>201.65</ele>
        <time>2019-05-05T07:21:30.000Z</time>
      </trkpt>
      <trkpt lat="45.31082" lon="0.3741">
        <ele>202.24</ele>
        <time>2019-05-05T07:21:36.000Z</time>
      </trkpt>
      <trkpt lat="45.31091" lon="0.37415">
        <ele>204.31</ele>
        <time>2019-05-05T07:22:16.000Z</time>
      </trkpt>
      <trkpt lat="45.31099" lon="0.37421">
        <ele>204.96</ele>
        <time>2019-05-05T07:22:34.000Z</time>
      </trkpt>
      <trkpt lat="45.31102" lon="0.37434">
        <ele>207.81</ele>
        <time>2019-05-05T07:23:24.000Z</time>
      </trkpt>
      <trkpt lat="45.31103" lon="0.37448">
        <ele>208.12</ele>
        <time>2019-05-05T07:23:29.000Z</time>
      </trkpt>
      <trkpt lat="45.31106" lon="0.37461">
        <ele>208.21</ele>
        <time>2019-05-05T07:23:38.000Z</time>
      </trkpt>
      <trkpt lat="45.31111" lon="0.37473">
        <ele>209.22</ele>
        <time>2019-05-05T07:23:47.000Z</time>
      </trkpt>
      <trkpt lat="45.31119" lon="0.37479">
        <ele>211</ele>
        <time>2019-05-05T07:24:08.000Z</time>
      </trkpt>
      <trkpt lat="45.31122" lon="0.37492">
        <ele>212.42</ele>
        <time>2019-05-05T07:24:18.000Z</time>
      </trkpt>
      <trkpt lat="45.31126" lon="0.37504">
        <ele>213.71</ele>
        <time>2019-05-05T07:24:28.000Z</time>
      </trkpt>
      <trkpt lat="45.3112" lon="0.37515">
        <ele>214.61</ele>
        <time>2019-05-05T07:24:35.000Z</time>
      </trkpt>
      <trkpt lat="45.31123" lon="0.37529">
        <ele>215.74</ele>
        <time>2019-05-05T07:24:42.000Z</time>
      </trkpt>
      <trkpt lat="45.31124" lon="0.37543">
        <ele>217.17</ele>
        <time>2019-05-05T07:24:54.000Z</time>
      </trkpt>
      <trkpt lat="45.31118" lon="0.37554">
        <ele>217.63</ele>
        <time>2019-05-05T07:25:00.000Z</time>
      </trkpt>
      <trkpt lat="45.31119" lon="0.37568">
        <ele>217.79</ele>
        <time>2019-05-05T07:25:06.000Z</time>
      </trkpt>
      <trkpt lat="45.31125" lon="0.37581">
        <ele>217.91</ele>
        <time>2019-05-05T07:25:11.000Z</time>
      </trkpt>
      <trkpt lat="45.31129" lon="0.37594">
        <ele>218.62</ele>
        <time>2019-05-05T07:25:18.000Z</time>
      </trkpt>
      <trkpt lat="45.31134" lon="0.37606">
        <ele>219.19</ele>
        <time>2019-05-05T07:25:23.000Z</time>
      </trkpt>
      <trkpt lat="45.31138" lon="0.37618">
        <ele>219.38</ele>
        <time>2019-05-05T07:25:28.000Z</time>
      </trkpt>
      <trkpt lat="45.31144" lon="0.37632">
        <ele>219.48</ele>
        <time>2019-05-05T07:25:33.000Z</time>
      </trkpt>
      <trkpt lat="45.31151" lon="0.3765">
        <ele>219.68</ele>
        <time>2019-05-05T07:25:38.000Z</time>
      </trkpt>
      <trkpt lat="45.31158" lon="0.37669">
        <ele>219.88</ele>
        <time>2019-05-05T07:25:43.000Z</time>
      </trkpt>
      <trkpt lat="45.31165" lon="0.37681">
        <ele>220.11</ele>
        <time>2019-05-05T07:25:48.000Z</time>
      </trkpt>
      <trkpt lat="45.31175" lon="0.37695">
        <ele>220.58</ele>
        <time>2019-05-05T07:25:53.000Z</time>
      </trkpt>
      <trkpt lat="45.31183" lon="0.37705">
        <ele>220.41</ele>
        <time>2019-05-05T07:26:00.000Z</time>
      </trkpt>
      <trkpt lat="45.31191" lon="0.37717">
        <ele>220.29</ele>
        <time>2019-05-05T07:26:07.000Z</time>
      </trkpt>
      <trkpt lat="45.31203" lon="0.37719">
        <ele>220.26</ele>
        <time>2019-05-05T07:26:12.000Z</time>
      </trkpt>
      <trkpt lat="45.31212" lon="0.37711">
        <ele>220.42</ele>
        <time>2019-05-05T07:26:17.000Z</time>
      </trkpt>
      <trkpt lat="45.31219" lon="0.37698">
        <ele>220.94</ele>
        <time>2019-05-05T07:26:22.000Z</time>
      </trkpt>
      <trkpt lat="45.31229" lon="0.37677">
        <ele>221.37</ele>
        <time>2019-05-05T07:26:27.000Z</time>
      </trkpt>
      <trkpt lat="45.31242" lon="0.37661">
        <ele>221.78</ele>
        <time>2019-05-05T07:26:32.000Z</time>
      </trkpt>
      <trkpt lat="45.31254" lon="0.3765">
        <ele>221.94</ele>
        <time>2019-05-05T07:26:37.000Z</time>
      </trkpt>
      <trkpt lat="45.31266" lon="0.3764">
        <ele>221.97</ele>
        <time>2019-05-05T07:26:42.000Z</time>
      </trkpt>
      <trkpt lat="45.31281" lon="0.37636">
        <ele>221.84</ele>
        <time>2019-05-05T07:26:47.000Z</time>
      </trkpt>
      <trkpt lat="45.31295" lon="0.37639">
        <ele>221.85</ele>
        <time>2019-05-05T07:26:52.000Z</time>
      </trkpt>
      <trkpt lat="45.31318" lon="0.37637">
        <ele>221.18</ele>
        <time>2019-05-05T07:26:57.000Z</time>
      </trkpt>
      <trkpt lat="45.31343" lon="0.37639">
        <ele>220.92</ele>
        <time>2019-05-05T07:27:02.000Z</time>
      </trkpt>
      <trkpt lat="45.31371" lon="0.37641">
        <ele>219.69</ele>
        <time>2019-05-05T07:27:07.000Z</time>
      </trkpt>
      <trkpt lat="45.31394" lon="0.37643">
        <ele>218.06</ele>
        <time>2019-05-05T07:27:12.000Z</time>
      </trkpt>
      <trkpt lat="45.31419" lon="0.37646">
        <ele>216.64</ele>
        <time>2019-05-05T07:27:17.000Z</time>
      </trkpt>
      <trkpt lat="45.31437" lon="0.37657">
        <ele>215.4</ele>
        <time>2019-05-05T07:27:22.000Z</time>
      </trkpt>
      <trkpt lat="45.31443" lon="0.37683">
        <ele>211.98</ele>
        <time>2019-05-05T07:27:27.000Z</time>
      </trkpt>
      <trkpt lat="45.31444" lon="0.37712">
        <ele>212.5</ele>
        <time>2019-05-05T07:27:32.000Z</time>
      </trkpt>
      <trkpt lat="45.31448" lon="0.37741">
        <ele>213.31</ele>
        <time>2019-05-05T07:27:37.000Z</time>
      </trkpt>
      <trkpt lat="45.31462" lon="0.37774">
        <ele>213.96</ele>
        <time>2019-05-05T07:27:42.000Z</time>
      </trkpt>
      <trkpt lat="45.3148" lon="0.37811">
        <ele>212.23</ele>
        <time>2019-05-05T07:27:47.000Z</time>
      </trkpt>
      <trkpt lat="45.31507" lon="0.37837">
        <ele>206.88</ele>
        <time>2019-05-05T07:27:52.000Z</time>
      </trkpt>
      <trkpt lat="45.31536" lon="0.37857">
        <ele>202.63</ele>
        <time>2019-05-05T07:27:57.000Z</time>
      </trkpt>
      <trkpt lat="45.31566" lon="0.37876">
        <ele>199.83</ele>
        <time>2019-05-05T07:28:02.000Z</time>
      </trkpt>
      <trkpt lat="45.31588" lon="0.37891">
        <ele>199.77</ele>
        <time>2019-05-05T07:28:07.000Z</time>
      </trkpt>
      <trkpt lat="45.31604" lon="0.37903">
        <ele>200.27</ele>
        <time>2019-05-05T07:28:12.000Z</time>
      </trkpt>
      <trkpt lat="45.31618" lon="0.3792">
        <ele>200.38</ele>
        <time>2019-05-05T07:28:17.000Z</time>
      </trkpt>
      <trkpt lat="45.31632" lon="0.3794">
        <ele>200.78</ele>
        <time>2019-05-05T07:28:22.000Z</time>
      </trkpt>
      <trkpt lat="45.3165" lon="0.37959">
        <ele>200.68</ele>
        <time>2019-05-05T07:28:27.000Z</time>
      </trkpt>
      <trkpt lat="45.31663" lon="0.37981">
        <ele>199.33</ele>
        <time>2019-05-05T07:28:32.000Z</time>
      </trkpt>
      <trkpt lat="45.31677" lon="0.38005">
        <ele>197.36</ele>
        <time>2019-05-05T07:28:37.000Z</time>
      </trkpt>
      <trkpt lat="45.3169" lon="0.38024">
        <ele>197</ele>
        <time>2019-05-05T07:28:42.000Z</time>
      </trkpt>
      <trkpt lat="45.31706" lon="0.38048">
        <ele>194.38</ele>
        <time>2019-05-05T07:28:47.000Z</time>
      </trkpt>
      <trkpt lat="45.31727" lon="0.3808">
        <ele>191.76</ele>
        <time>2019-05-05T07:28:52.000Z</time>
      </trkpt>
      <trkpt lat="45.31756" lon="0.38114">
        <ele>190.36</ele>
        <time>2019-05-05T07:28:57.000Z</time>
      </trkpt>
      <trkpt lat="45.31781" lon="0.38156">
        <ele>186.6</ele>
        <time>2019-05-05T07:29:02.000Z</time>
      </trkpt>
      <trkpt lat="45.31811" lon="0.38187">
        <ele>184.74</ele>
        <time>2019-05-05T07:29:07.000Z</time>
      </trkpt>
      <trkpt lat="45.31831" lon="0.38224">
        <ele>183.44</ele>
        <time>2019-05-05T07:29:12.000Z</time>
      </trkpt>
      <trkpt lat="45.31857" lon="0.38268">
        <ele>179.74</ele>
        <time>2019-05-05T07:29:17.000Z</time>
      </trkpt>
      <trkpt lat="45.31877" lon="0.38296">
        <ele>176.51</ele>
        <time>2019-05-05T07:29:22.000Z</time>
      </trkpt>
      <trkpt lat="45.31895" lon="0.38326">
        <ele>173.32</ele>
        <time>2019-05-05T07:29:27.000Z</time>
      </trkpt>
      <trkpt lat="45.31911" lon="0.38358">
        <ele>172.58</ele>
        <time>2019-05-05T07:29:32.000Z</time>
      </trkpt>
      <trkpt lat="45.31929" lon="0.38397">
        <ele>171.42</ele>
        <time>2019-05-05T07:29:37.000Z</time>
      </trkpt>
      <trkpt lat="45.31945" lon="0.38431">
        <ele>169.54</ele>
        <time>2019-05-05T07:29:42.000Z</time>
      </trkpt>
      <trkpt lat="45.31956" lon="0.38461">
        <ele>169.73</ele>
        <time>2019-05-05T07:29:47.000Z</time>
      </trkpt>
      <trkpt lat="45.31965" lon="0.38499">
        <ele>170.31</ele>
        <time>2019-05-05T07:29:52.000Z</time>
      </trkpt>
      <trkpt lat="45.31979" lon="0.3854">
        <ele>171.85</ele>
        <time>2019-05-05T07:29:57.000Z</time>
      </trkpt>
      <trkpt lat="45.31997" lon="0.38583">
        <ele>169.19</ele>
        <time>2019-05-05T07:30:02.000Z</time>
      </trkpt>
      <trkpt lat="45.32019" lon="0.38621">
        <ele>167.06</ele>
        <time>2019-05-05T07:30:07.000Z</time>
      </trkpt>
      <trkpt lat="45.32048" lon="0.38642">
        <ele>167.72</ele>
        <time>2019-05-05T07:30:12.000Z</time>
      </trkpt>
      <trkpt lat="45.32054" lon="0.38666">
        <ele>164.23</ele>
        <time>2019-05-05T07:30:17.000Z</time>
      </trkpt>
      <trkpt lat="45.32058" lon="0.38698">
        <ele>163.22</ele>
        <time>2019-05-05T07:30:22.000Z</time>
      </trkpt>
      <trkpt lat="45.32044" lon="0.38711">
        <ele>162.82</ele>
        <time>2019-05-05T07:30:27.000Z</time>
      </trkpt>
      <trkpt lat="45.32024" lon="0.38722">
        <ele>163.57</ele>
        <time>2019-05-05T07:30:32.000Z</time>
      </trkpt>
      <trkpt lat="45.32006" lon="0.38724">
        <ele>163.66</ele>
        <time>2019-05-05T07:30:37.000Z</time>
      </trkpt>
      <trkpt lat="45.31992" lon="0.38727">
        <ele>163.93</ele>
        <time>2019-05-05T07:30:42.000Z</time>
      </trkpt>
      <trkpt lat="45.31977" lon="0.3873">
        <ele>164.28</ele>
        <time>2019-05-05T07:30:47.000Z</time>
      </trkpt>
      <trkpt lat="45.31962" lon="0.38734">
        <ele>165.7</ele>
        <time>2019-05-05T07:30:52.000Z</time>
      </trkpt>
      <trkpt lat="45.31947" lon="0.38739">
        <ele>166.44</ele>
        <time>2019-05-05T07:30:57.000Z</time>
      </trkpt>
      <trkpt lat="45.31931" lon="0.38743">
        <ele>167.08</ele>
        <time>2019-05-05T07:31:02.000Z</time>
      </trkpt>
      <trkpt lat="45.31917" lon="0.3875">
        <ele>167.73</ele>
        <time>2019-05-05T07:31:07.000Z</time>
      </trkpt>
      <trkpt lat="45.319" lon="0.38761">
        <ele>171.34</ele>
        <time>2019-05-05T07:31:12.000Z</time>
      </trkpt>
      <trkpt lat="45.31882" lon="0.38769">
        <ele>173.39</ele>
        <time>2019-05-05T07:31:17.000Z</time>
      </trkpt>
      <trkpt lat="45.31861" lon="0.38777">
        <ele>173.7</ele>
        <time>2019-05-05T07:31:22.000Z</time>
      </trkpt>
      <trkpt lat="45.3184" lon="0.38783">
        <ele>173.96</ele>
        <time>2019-05-05T07:31:27.000Z</time>
      </trkpt>
      <trkpt lat="45.31814" lon="0.38796">
        <ele>174.98</ele>
        <time>2019-05-05T07:31:32.000Z</time>
      </trkpt>
      <trkpt lat="45.31785" lon="0.38811">
        <ele>175.96</ele>
        <time>2019-05-05T07:31:37.000Z</time>
      </trkpt>
      <trkpt lat="45.31759" lon="0.38823">
        <ele>173.02</ele>
        <time>2019-05-05T07:31:42.000Z</time>
      </trkpt>
      <trkpt lat="45.31738" lon="0.38827">
        <ele>171.98</ele>
        <time>2019-05-05T07:31:47.000Z</time>
      </trkpt>
      <trkpt lat="45.31726" lon="0.38839">
        <ele>172.13</ele>
        <time>2019-05-05T07:31:52.000Z</time>
      </trkpt>
      <trkpt lat="45.31719" lon="0.38857">
        <ele>172.17</ele>
        <time>2019-05-05T07:31:57.000Z</time>
      </trkpt>
      <trkpt lat="45.31702" lon="0.38859">
        <ele>172.14</ele>
        <time>2019-05-05T07:32:02.000Z</time>
      </trkpt>
      <trkpt lat="45.31686" lon="0.38862">
        <ele>172.59</ele>
        <time>2019-05-05T07:32:07.000Z</time>
      </trkpt>
      <trkpt lat="45.3167" lon="0.38863">
        <ele>173.2</ele>
        <time>2019-05-05T07:32:12.000Z</time>
      </trkpt>
      <trkpt lat="45.31655" lon="0.38865">
        <ele>172.99</ele>
        <time>2019-05-05T07:32:17.000Z</time>
      </trkpt>
      <trkpt lat="45.31639" lon="0.38867">
        <ele>172.69</ele>
        <time>2019-05-05T07:32:22.000Z</time>
      </trkpt>
      <trkpt lat="45.31617" lon="0.38872">
        <ele>172.24</ele>
        <time>2019-05-05T07:32:27.000Z</time>
      </trkpt>
      <trkpt lat="45.31594" lon="0.38875">
        <ele>169.65</ele>
        <time>2019-05-05T07:32:32.000Z</time>
      </trkpt>
      <trkpt lat="45.31569" lon="0.38873">
        <ele>168.2</ele>
        <time>2019-05-05T07:32:37.000Z</time>
      </trkpt>
      <trkpt lat="45.31552" lon="0.3887">
        <ele>167.83</ele>
        <time>2019-05-05T07:32:42.000Z</time>
      </trkpt>
      <trkpt lat="45.31541" lon="0.38868">
        <ele>167.97</ele>
        <time>2019-05-05T07:32:47.000Z</time>
      </trkpt>
      <trkpt lat="45.31531" lon="0.38868">
        <ele>167.91</ele>
        <time>2019-05-05T07:32:52.000Z</time>
      </trkpt>
      <trkpt lat="45.3152" lon="0.3887">
        <ele>168.33</ele>
        <time>2019-05-05T07:33:07.000Z</time>
      </trkpt>
      <trkpt lat="45.31511" lon="0.38863">
        <ele>168.28</ele>
        <time>2019-05-05T07:33:15.000Z</time>
      </trkpt>
      <trkpt lat="45.31501" lon="0.3886">
        <ele>168.24</ele>
        <time>2019-05-05T07:33:20.000Z</time>
      </trkpt>
      <trkpt lat="45.3149" lon="0.38857">
        <ele>168.12</ele>
        <time>2019-05-05T07:33:25.000Z</time>
      </trkpt>
      <trkpt lat="45.31475" lon="0.38855">
        <ele>168</ele>
        <time>2019-05-05T07:33:30.000Z</time>
      </trkpt>
      <trkpt lat="45.31465" lon="0.38838">
        <ele>166.93</ele>
        <time>2019-05-05T07:33:45.000Z</time>
      </trkpt>
      <trkpt lat="45.31456" lon="0.38827">
        <ele>166.65</ele>
        <time>2019-05-05T07:33:50.000Z</time>
      </trkpt>
      <trkpt lat="45.31434" lon="0.38811">
        <ele>163.27</ele>
        <time>2019-05-05T07:33:55.000Z</time>
      </trkpt>
      <trkpt lat="45.31412" lon="0.38801">
        <ele>161.77</ele>
        <time>2019-05-05T07:34:00.000Z</time>
      </trkpt>
      <trkpt lat="45.314" lon="0.38801">
        <ele>160.88</ele>
        <time>2019-05-05T07:34:08.000Z</time>
      </trkpt>
      <trkpt lat="45.31391" lon="0.38805">
        <ele>160.27</ele>
        <time>2019-05-05T07:36:19.000Z</time>
      </trkpt>
      <trkpt lat="45.31381" lon="0.38806">
        <ele>160.48</ele>
        <time>2019-05-05T07:36:24.000Z</time>
      </trkpt>
      <trkpt lat="45.31372" lon="0.38807">
        <ele>160.89</ele>
        <time>2019-05-05T07:36:29.000Z</time>
      </trkpt>
      <trkpt lat="45.31357" lon="0.38807">
        <ele>161.34</ele>
        <time>2019-05-05T07:36:34.000Z</time>
      </trkpt>
      <trkpt lat="45.31345" lon="0.38809">
        <ele>161.64</ele>
        <time>2019-05-05T07:36:39.000Z</time>
      </trkpt>
      <trkpt lat="45.31335" lon="0.38807">
        <ele>161.89</ele>
        <time>2019-05-05T07:36:45.000Z</time>
      </trkpt>
      <trkpt lat="45.31324" lon="0.38807">
        <ele>162.42</ele>
        <time>2019-05-05T07:36:50.000Z</time>
      </trkpt>
      <trkpt lat="45.31314" lon="0.38805">
        <ele>162.96</ele>
        <time>2019-05-05T07:36:55.000Z</time>
      </trkpt>
      <trkpt lat="45.31305" lon="0.38809">
        <ele>163.56</ele>
        <time>2019-05-05T07:37:00.000Z</time>
      </trkpt>
      <trkpt lat="45.31295" lon="0.38809">
        <ele>163.57</ele>
        <time>2019-05-05T07:37:05.000Z</time>
      </trkpt>
      <trkpt lat="45.31285" lon="0.38804">
        <ele>163.96</ele>
        <time>2019-05-05T07:37:11.000Z</time>
      </trkpt>
      <trkpt lat="45.3127" lon="0.38804">
        <ele>164.43</ele>
        <time>2019-05-05T07:37:16.000Z</time>
      </trkpt>
      <trkpt lat="45.31253" lon="0.38805">
        <ele>164.27</ele>
        <time>2019-05-05T07:37:21.000Z</time>
      </trkpt>
      <trkpt lat="45.31241" lon="0.38813">
        <ele>163.8</ele>
        <time>2019-05-05T07:37:26.000Z</time>
      </trkpt>
      <trkpt lat="45.31229" lon="0.38819">
        <ele>163.31</ele>
        <time>2019-05-05T07:37:31.000Z</time>
      </trkpt>
      <trkpt lat="45.31216" lon="0.38822">
        <ele>162.86</ele>
        <time>2019-05-05T07:37:36.000Z</time>
      </trkpt>
      <trkpt lat="45.31204" lon="0.38823">
        <ele>162.76</ele>
        <time>2019-05-05T07:37:41.000Z</time>
      </trkpt>
      <trkpt lat="45.31191" lon="0.38825">
        <ele>162.77</ele>
        <time>2019-05-05T07:37:46.000Z</time>
      </trkpt>
      <trkpt lat="45.31179" lon="0.3883">
        <ele>163.04</ele>
        <time>2019-05-05T07:37:51.000Z</time>
      </trkpt>
      <trkpt lat="45.31167" lon="0.38831">
        <ele>163.73</ele>
        <time>2019-05-05T07:37:56.000Z</time>
      </trkpt>
      <trkpt lat="45.31156" lon="0.38835">
        <ele>164.58</ele>
        <time>2019-05-05T07:38:01.000Z</time>
      </trkpt>
      <trkpt lat="45.31137" lon="0.38841">
        <ele>165.12</ele>
        <time>2019-05-05T07:38:06.000Z</time>
      </trkpt>
      <trkpt lat="45.3112" lon="0.38847">
        <ele>165.04</ele>
        <time>2019-05-05T07:38:11.000Z</time>
      </trkpt>
      <trkpt lat="45.3111" lon="0.38854">
        <ele>165.22</ele>
        <time>2019-05-05T07:38:18.000Z</time>
      </trkpt>
      <trkpt lat="45.31101" lon="0.38862">
        <ele>164.37</ele>
        <time>2019-05-05T07:38:28.000Z</time>
      </trkpt>
      <trkpt lat="45.3109" lon="0.38861">
        <ele>163.06</ele>
        <time>2019-05-05T07:38:37.000Z</time>
      </trkpt>
      <trkpt lat="45.31073" lon="0.38866">
        <ele>162.58</ele>
        <time>2019-05-05T07:38:42.000Z</time>
      </trkpt>
      <trkpt lat="45.31056" lon="0.38874">
        <ele>162.29</ele>
        <time>2019-05-05T07:38:47.000Z</time>
      </trkpt>
      <trkpt lat="45.3104" lon="0.38882">
        <ele>162.18</ele>
        <time>2019-05-05T07:38:52.000Z</time>
      </trkpt>
      <trkpt lat="45.31021" lon="0.38889">
        <ele>162.05</ele>
        <time>2019-05-05T07:38:57.000Z</time>
      </trkpt>
      <trkpt lat="45.30999" lon="0.38897">
        <ele>161.84</ele>
        <time>2019-05-05T07:39:02.000Z</time>
      </trkpt>
      <trkpt lat="45.30982" lon="0.38905">
        <ele>161.68</ele>
        <time>2019-05-05T07:39:07.000Z</time>
      </trkpt>
      <trkpt lat="45.30967" lon="0.3891">
        <ele>161.29</ele>
        <time>2019-05-05T07:39:12.000Z</time>
      </trkpt>
      <trkpt lat="45.30951" lon="0.38917">
        <ele>160.92</ele>
        <time>2019-05-05T07:39:17.000Z</time>
      </trkpt>
      <trkpt lat="45.30937" lon="0.38924">
        <ele>160.55</ele>
        <time>2019-05-05T07:39:22.000Z</time>
      </trkpt>
      <trkpt lat="45.30922" lon="0.38931">
        <ele>160.05</ele>
        <time>2019-05-05T07:39:27.000Z</time>
      </trkpt>
      <trkpt lat="45.30908" lon="0.38936">
        <ele>159.68</ele>
        <time>2019-05-05T07:39:32.000Z</time>
      </trkpt>
      <trkpt lat="45.30898" lon="0.38938">
        <ele>159.31</ele>
        <time>2019-05-05T07:39:37.000Z</time>
      </trkpt>
      <trkpt lat="45.30884" lon="0.38944">
        <ele>158.94</ele>
        <time>2019-05-05T07:39:42.000Z</time>
      </trkpt>
      <trkpt lat="45.30872" lon="0.38948">
        <ele>158.57</ele>
        <time>2019-05-05T07:39:47.000Z</time>
      </trkpt>
      <trkpt lat="45.30858" lon="0.38952">
        <ele>158.37</ele>
        <time>2019-05-05T07:39:52.000Z</time>
      </trkpt>
      <trkpt lat="45.30846" lon="0.38956">
        <ele>157.81</ele>
        <time>2019-05-05T07:39:57.000Z</time>
      </trkpt>
      <trkpt lat="45.30836" lon="0.3896">
        <ele>157.16</ele>
        <time>2019-05-05T07:40:02.000Z</time>
      </trkpt>
      <trkpt lat="45.30835" lon="0.38976">
        <ele>156.7</ele>
        <time>2019-05-05T07:40:08.000Z</time>
      </trkpt>
      <trkpt lat="45.30835" lon="0.39009">
        <ele>152.54</ele>
        <time>2019-05-05T07:40:13.000Z</time>
      </trkpt>
      <trkpt lat="45.30832" lon="0.39058">
        <ele>147.65</ele>
        <time>2019-05-05T07:40:18.000Z</time>
      </trkpt>
      <trkpt lat="45.30833" lon="0.39078">
        <ele>146.49</ele>
        <time>2019-05-05T07:40:23.000Z</time>
      </trkpt>
      <trkpt lat="45.30835" lon="0.39095">
        <ele>146.46</ele>
        <time>2019-05-05T07:40:28.000Z</time>
      </trkpt>
      <trkpt lat="45.30825" lon="0.39099">
        <ele>146.72</ele>
        <time>2019-05-05T07:40:33.000Z</time>
      </trkpt>
      <trkpt lat="45.30809" lon="0.39097">
        <ele>146.87</ele>
        <time>2019-05-05T07:40:38.000Z</time>
      </trkpt>
      <trkpt lat="45.30793" lon="0.39093">
        <ele>146.69</ele>
        <time>2019-05-05T07:40:43.000Z</time>
      </trkpt>
      <trkpt lat="45.30778" lon="0.39089">
        <ele>146.86</ele>
        <time>2019-05-05T07:40:48.000Z</time>
      </trkpt>
      <trkpt lat="45.30763" lon="0.39084">
        <ele>147.19</ele>
        <time>2019-05-05T07:40:53.000Z</time>
      </trkpt>
      <trkpt lat="45.30748" lon="0.39081">
        <ele>147.27</ele>
        <time>2019-05-05T07:40:58.000Z</time>
      </trkpt>
      <trkpt lat="45.30735" lon="0.39081">
        <ele>147.11</ele>
        <time>2019-05-05T07:41:03.000Z</time>
      </trkpt>
      <trkpt lat="45.30723" lon="0.39081">
        <ele>147.05</ele>
        <time>2019-05-05T07:41:08.000Z</time>
      </trkpt>
      <trkpt lat="45.30708" lon="0.3908">
        <ele>147.01</ele>
        <time>2019-05-05T07:41:13.000Z</time>
      </trkpt>
      <trkpt lat="45.30695" lon="0.39076">
        <ele>146.82</ele>
        <time>2019-05-05T07:41:18.000Z</time>
      </trkpt>
      <trkpt lat="45.30683" lon="0.39071">
        <ele>146.39</ele>
        <time>2019-05-05T07:41:23.000Z</time>
      </trkpt>
      <trkpt lat="45.30669" lon="0.3907">
        <ele>146.16</ele>
        <time>2019-05-05T07:41:28.000Z</time>
      </trkpt>
      <trkpt lat="45.30657" lon="0.39077">
        <ele>145.92</ele>
        <time>2019-05-05T07:41:33.000Z</time>
      </trkpt>
      <trkpt lat="45.30649" lon="0.39087">
        <ele>145.79</ele>
        <time>2019-05-05T07:41:38.000Z</time>
      </trkpt>
      <trkpt lat="45.30639" lon="0.391">
        <ele>145.74</ele>
        <time>2019-05-05T07:41:43.000Z</time>
      </trkpt>
      <trkpt lat="45.30628" lon="0.39107">
        <ele>145.79</ele>
        <time>2019-05-05T07:41:48.000Z</time>
      </trkpt>
      <trkpt lat="45.30618" lon="0.39111">
        <ele>145.72</ele>
        <time>2019-05-05T07:41:53.000Z</time>
      </trkpt>
      <trkpt lat="45.30608" lon="0.39115">
        <ele>145.79</ele>
        <time>2019-05-05T07:41:58.000Z</time>
      </trkpt>
      <trkpt lat="45.306" lon="0.39119">
        <ele>145.91</ele>
        <time>2019-05-05T07:42:03.000Z</time>
      </trkpt>
      <trkpt lat="45.3059" lon="0.39123">
        <ele>145.97</ele>
        <time>2019-05-05T07:42:08.000Z</time>
      </trkpt>
      <trkpt lat="45.30581" lon="0.3913">
        <ele>145.97</ele>
        <time>2019-05-05T07:42:13.000Z</time>
      </trkpt>
      <trkpt lat="45.30572" lon="0.39138">
        <ele>145.65</ele>
        <time>2019-05-05T07:42:18.000Z</time>
      </trkpt>
      <trkpt lat="45.3056" lon="0.39142">
        <ele>145.49</ele>
        <time>2019-05-05T07:42:23.000Z</time>
      </trkpt>
      <trkpt lat="45.3055" lon="0.39145">
        <ele>145.36</ele>
        <time>2019-05-05T07:42:28.000Z</time>
      </trkpt>
      <trkpt lat="45.30538" lon="0.3915">
        <ele>145.1</ele>
        <time>2019-05-05T07:42:33.000Z</time>
      </trkpt>
      <trkpt lat="45.30529" lon="0.39154">
        <ele>145.15</ele>
        <time>2019-05-05T07:42:38.000Z</time>
      </trkpt>
      <trkpt lat="45.30518" lon="0.39158">
        <ele>145.23</ele>
        <time>2019-05-05T07:42:44.000Z</time>
      </trkpt>
      <trkpt lat="45.30509" lon="0.39161">
        <ele>145.03</ele>
        <time>2019-05-05T07:42:49.000Z</time>
      </trkpt>
      <trkpt lat="45.305" lon="0.39164">
        <ele>144.73</ele>
        <time>2019-05-05T07:42:54.000Z</time>
      </trkpt>
      <trkpt lat="45.30489" lon="0.39167">
        <ele>144.49</ele>
        <time>2019-05-05T07:43:01.000Z</time>
      </trkpt>
      <trkpt lat="45.30478" lon="0.39169">
        <ele>144.41</ele>
        <time>2019-05-05T07:43:06.000Z</time>
      </trkpt>
      <trkpt lat="45.30469" lon="0.39168">
        <ele>144.39</ele>
        <time>2019-05-05T07:43:11.000Z</time>
      </trkpt>
      <trkpt lat="45.30457" lon="0.39163">
        <ele>144.3</ele>
        <time>2019-05-05T07:43:16.000Z</time>
      </trkpt>
      <trkpt lat="45.30446" lon="0.3916">
        <ele>144.3</ele>
        <time>2019-05-05T07:43:21.000Z</time>
      </trkpt>
      <trkpt lat="45.30437" lon="0.39158">
        <ele>144.27</ele>
        <time>2019-05-05T07:43:26.000Z</time>
      </trkpt>
      <trkpt lat="45.30424" lon="0.39156">
        <ele>144.2</ele>
        <time>2019-05-05T07:43:31.000Z</time>
      </trkpt>
      <trkpt lat="45.30412" lon="0.39159">
        <ele>143.83</ele>
        <time>2019-05-05T07:43:36.000Z</time>
      </trkpt>
      <trkpt lat="45.30401" lon="0.39164">
        <ele>143.68</ele>
        <time>2019-05-05T07:43:41.000Z</time>
      </trkpt>
      <trkpt lat="45.30392" lon="0.3917">
        <ele>143.41</ele>
        <time>2019-05-05T07:43:46.000Z</time>
      </trkpt>
      <trkpt lat="45.30382" lon="0.39178">
        <ele>143.36</ele>
        <time>2019-05-05T07:43:51.000Z</time>
      </trkpt>
      <trkpt lat="45.30373" lon="0.39185">
        <ele>143.16</ele>
        <time>2019-05-05T07:43:57.000Z</time>
      </trkpt>
      <trkpt lat="45.30363" lon="0.39187">
        <ele>143.07</ele>
        <time>2019-05-05T07:44:03.000Z</time>
      </trkpt>
      <trkpt lat="45.30354" lon="0.39191">
        <ele>142.95</ele>
        <time>2019-05-05T07:44:08.000Z</time>
      </trkpt>
      <trkpt lat="45.30344" lon="0.39192">
        <ele>142.97</ele>
        <time>2019-05-05T07:44:14.000Z</time>
      </trkpt>
      <trkpt lat="45.30334" lon="0.39193">
        <ele>143.1</ele>
        <time>2019-05-05T07:44:19.000Z</time>
      </trkpt>
      <trkpt lat="45.30325" lon="0.39188">
        <ele>142.94</ele>
        <time>2019-05-05T07:44:24.000Z</time>
      </trkpt>
      <trkpt lat="45.30317" lon="0.39181">
        <ele>142.87</ele>
        <time>2019-05-05T07:44:29.000Z</time>
      </trkpt>
      <trkpt lat="45.30308" lon="0.39175">
        <ele>142.92</ele>
        <time>2019-05-05T07:44:34.000Z</time>
      </trkpt>
      <trkpt lat="45.30301" lon="0.39168">
        <ele>143.75</ele>
        <time>2019-05-05T07:44:47.000Z</time>
      </trkpt>
      <trkpt lat="45.30298" lon="0.39154">
        <ele>143.75</ele>
        <time>2019-05-05T07:45:03.000Z</time>
      </trkpt>
      <trkpt lat="45.30298" lon="0.39134">
        <ele>144.97</ele>
        <time>2019-05-05T07:45:18.000Z</time>
      </trkpt>
      <trkpt lat="45.30297" lon="0.39119">
        <ele>145.36</ele>
        <time>2019-05-05T07:45:24.000Z</time>
      </trkpt>
      <trkpt lat="45.30296" lon="0.39104">
        <ele>145.43</ele>
        <time>2019-05-05T07:45:30.000Z</time>
      </trkpt>
      <trkpt lat="45.30293" lon="0.3909">
        <ele>145.61</ele>
        <time>2019-05-05T07:45:35.000Z</time>
      </trkpt>
      <trkpt lat="45.30286" lon="0.39079">
        <ele>145.79</ele>
        <time>2019-05-05T07:45:41.000Z</time>
      </trkpt>
      <trkpt lat="45.30277" lon="0.39073">
        <ele>146.08</ele>
        <time>2019-05-05T07:45:46.000Z</time>
      </trkpt>
      <trkpt lat="45.30267" lon="0.39072">
        <ele>146.49</ele>
        <time>2019-05-05T07:45:51.000Z</time>
      </trkpt>
      <trkpt lat="45.30258" lon="0.39072">
        <ele>147.37</ele>
        <time>2019-05-05T07:45:58.000Z</time>
      </trkpt>
      <trkpt lat="45.30251" lon="0.39063">
        <ele>148.76</ele>
        <time>2019-05-05T07:46:07.000Z</time>
      </trkpt>
      <trkpt lat="45.30243" lon="0.39054">
        <ele>150.34</ele>
        <time>2019-05-05T07:46:18.000Z</time>
      </trkpt>
      <trkpt lat="45.30238" lon="0.39043">
        <ele>151.49</ele>
        <time>2019-05-05T07:46:26.000Z</time>
      </trkpt>
      <trkpt lat="45.30233" lon="0.39031">
        <ele>153.24</ele>
        <time>2019-05-05T07:46:37.000Z</time>
      </trkpt>
      <trkpt lat="45.30228" lon="0.39021">
        <ele>154.78</ele>
        <time>2019-05-05T07:46:46.000Z</time>
      </trkpt>
      <trkpt lat="45.30226" lon="0.39008">
        <ele>155.92</ele>
        <time>2019-05-05T07:46:56.000Z</time>
      </trkpt>
      <trkpt lat="45.30225" lon="0.38994">
        <ele>157.83</ele>
        <time>2019-05-05T07:47:08.000Z</time>
      </trkpt>
      <trkpt lat="45.30223" lon="0.38981">
        <ele>160.83</ele>
        <time>2019-05-05T07:47:21.000Z</time>
      </trkpt>
      <trkpt lat="45.30218" lon="0.3897">
        <ele>162.76</ele>
        <time>2019-05-05T07:47:30.000Z</time>
      </trkpt>
      <trkpt lat="45.30214" lon="0.38959">
        <ele>163.85</ele>
        <time>2019-05-05T07:47:41.000Z</time>
      </trkpt>
      <trkpt lat="45.30213" lon="0.38946">
        <ele>165.68</ele>
        <time>2019-05-05T07:47:54.000Z</time>
      </trkpt>
      <trkpt lat="45.30214" lon="0.38931">
        <ele>168.47</ele>
        <time>2019-05-05T07:48:11.000Z</time>
      </trkpt>
      <trkpt lat="45.30212" lon="0.38919">
        <ele>169.51</ele>
        <time>2019-05-05T07:48:25.000Z</time>
      </trkpt>
      <trkpt lat="45.30216" lon="0.38905">
        <ele>171.49</ele>
        <time>2019-05-05T07:48:52.000Z</time>
      </trkpt>
      <trkpt lat="45.30217" lon="0.38891">
        <ele>172.81</ele>
        <time>2019-05-05T07:49:03.000Z</time>
      </trkpt>
      <trkpt lat="45.3022" lon="0.38877">
        <ele>173.79</ele>
        <time>2019-05-05T07:49:14.000Z</time>
      </trkpt>
      <trkpt lat="45.30222" lon="0.38864">
        <ele>175.73</ele>
        <time>2019-05-05T07:49:24.000Z</time>
      </trkpt>
      <trkpt lat="45.30226" lon="0.38852">
        <ele>178.36</ele>
        <time>2019-05-05T07:49:38.000Z</time>
      </trkpt>
      <trkpt lat="45.30231" lon="0.3884">
        <ele>178.84</ele>
        <time>2019-05-05T07:49:45.000Z</time>
      </trkpt>
      <trkpt lat="45.30234" lon="0.38827">
        <ele>179.03</ele>
        <time>2019-05-05T07:49:52.000Z</time>
      </trkpt>
      <trkpt lat="45.30232" lon="0.38814">
        <ele>180.89</ele>
        <time>2019-05-05T07:50:06.000Z</time>
      </trkpt>
      <trkpt lat="45.30233" lon="0.38801">
        <ele>182.59</ele>
        <time>2019-05-05T07:50:17.000Z</time>
      </trkpt>
      <trkpt lat="45.30237" lon="0.38788">
        <ele>184.23</ele>
        <time>2019-05-05T07:50:27.000Z</time>
      </trkpt>
      <trkpt lat="45.30238" lon="0.38774">
        <ele>185.46</ele>
        <time>2019-05-05T07:50:37.000Z</time>
      </trkpt>
      <trkpt lat="45.30238" lon="0.38761">
        <ele>187.9</ele>
        <time>2019-05-05T07:50:49.000Z</time>
      </trkpt>
      <trkpt lat="45.30238" lon="0.38748">
        <ele>188.98</ele>
        <time>2019-05-05T07:50:59.000Z</time>
      </trkpt>
      <trkpt lat="45.30241" lon="0.38734">
        <ele>190.83</ele>
        <time>2019-05-05T07:51:10.000Z</time>
      </trkpt>
      <trkpt lat="45.30242" lon="0.3872">
        <ele>191.94</ele>
        <time>2019-05-05T07:51:17.000Z</time>
      </trkpt>
      <trkpt lat="45.30242" lon="0.38705">
        <ele>193.2</ele>
        <time>2019-05-05T07:51:26.000Z</time>
      </trkpt>
      <trkpt lat="45.30243" lon="0.38691">
        <ele>194.08</ele>
        <time>2019-05-05T07:51:33.000Z</time>
      </trkpt>
      <trkpt lat="45.30245" lon="0.38678">
        <ele>195</ele>
        <time>2019-05-05T07:51:40.000Z</time>
      </trkpt>
      <trkpt lat="45.30246" lon="0.38664">
        <ele>196.27</ele>
        <time>2019-05-05T07:51:46.000Z</time>
      </trkpt>
      <trkpt lat="45.30249" lon="0.38651">
        <ele>197.22</ele>
        <time>2019-05-05T07:51:52.000Z</time>
      </trkpt>
      <trkpt lat="45.3025" lon="0.38637">
        <ele>198.13</ele>
        <time>2019-05-05T07:51:58.000Z</time>
      </trkpt>
      <trkpt lat="45.3025" lon="0.38623">
        <ele>199.06</ele>
        <time>2019-05-05T07:52:04.000Z</time>
      </trkpt>
      <trkpt lat="45.30253" lon="0.38609">
        <ele>200.2</ele>
        <time>2019-05-05T07:52:11.000Z</time>
      </trkpt>
      <trkpt lat="45.30259" lon="0.38597">
        <ele>200.74</ele>
        <time>2019-05-05T07:52:17.000Z</time>
      </trkpt>
      <trkpt lat="45.30268" lon="0.38581">
        <ele>200.99</ele>
        <time>2019-05-05T07:52:22.000Z</time>
      </trkpt>
      <trkpt lat="45.30277" lon="0.38565">
        <ele>200.74</ele>
        <time>2019-05-05T07:52:27.000Z</time>
      </trkpt>
      <trkpt lat="45.30284" lon="0.38549">
        <ele>200.23</ele>
        <time>2019-05-05T07:52:32.000Z</time>
      </trkpt>
      <trkpt lat="45.30295" lon="0.38528">
        <ele>199.31</ele>
        <time>2019-05-05T07:52:37.000Z</time>
      </trkpt>
      <trkpt lat="45.30308" lon="0.38512">
        <ele>198.72</ele>
        <time>2019-05-05T07:52:42.000Z</time>
      </trkpt>
      <trkpt lat="45.30319" lon="0.38495">
        <ele>197.96</ele>
        <time>2019-05-05T07:52:47.000Z</time>
      </trkpt>
      <trkpt lat="45.30332" lon="0.38479">
        <ele>197.22</ele>
        <time>2019-05-05T07:52:52.000Z</time>
      </trkpt>
      <trkpt lat="45.30344" lon="0.38466">
        <ele>196.2</ele>
        <time>2019-05-05T07:52:57.000Z</time>
      </trkpt>
      <trkpt lat="45.30354" lon="0.38458">
        <ele>195.17</ele>
        <time>2019-05-05T07:53:02.000Z</time>
      </trkpt>
      <trkpt lat="45.30367" lon="0.38449">
        <ele>194.48</ele>
        <time>2019-05-05T07:53:07.000Z</time>
      </trkpt>
      <trkpt lat="45.30376" lon="0.38443">
        <ele>194.4</ele>
        <time>2019-05-05T07:53:12.000Z</time>
      </trkpt>
      <trkpt lat="45.30385" lon="0.38436">
        <ele>194.11</ele>
        <time>2019-05-05T07:53:19.000Z</time>
      </trkpt>
      <trkpt lat="45.30395" lon="0.3843">
        <ele>193.47</ele>
        <time>2019-05-05T07:53:29.000Z</time>
      </trkpt>
      <trkpt lat="45.30401" lon="0.38419">
        <ele>193.92</ele>
        <time>2019-05-05T07:53:39.000Z</time>
      </trkpt>
      <trkpt lat="45.30401" lon="0.38405">
        <ele>193.75</ele>
        <time>2019-05-05T07:53:51.000Z</time>
      </trkpt>
      <trkpt lat="45.30401" lon="0.38391">
        <ele>193.36</ele>
        <time>2019-05-05T07:53:58.000Z</time>
      </trkpt>
      <trkpt lat="45.30402" lon="0.38378">
        <ele>194.17</ele>
        <time>2019-05-05T07:54:59.000Z</time>
      </trkpt>
      <trkpt lat="45.30402" lon="0.38365">
        <ele>194</ele>
        <time>2019-05-05T07:55:12.000Z</time>
      </trkpt>
      <trkpt lat="45.30403" lon="0.38351">
        <ele>194.18</ele>
        <time>2019-05-05T07:55:18.000Z</time>
      </trkpt>
      <trkpt lat="45.30402" lon="0.38337">
        <ele>194.41</ele>
        <time>2019-05-05T07:55:23.000Z</time>
      </trkpt>
      <trkpt lat="45.30401" lon="0.38323">
        <ele>194.94</ele>
        <time>2019-05-05T07:55:29.000Z</time>
      </trkpt>
      <trkpt lat="45.30402" lon="0.3831">
        <ele>195.45</ele>
        <time>2019-05-05T07:55:35.000Z</time>
      </trkpt>
      <trkpt lat="45.304" lon="0.38294">
        <ele>195.8</ele>
        <time>2019-05-05T07:55:41.000Z</time>
      </trkpt>
      <trkpt lat="45.3039" lon="0.38292">
        <ele>196.27</ele>
        <time>2019-05-05T07:55:47.000Z</time>
      </trkpt>
      <trkpt lat="45.30377" lon="0.38296">
        <ele>196.65</ele>
        <time>2019-05-05T07:55:52.000Z</time>
      </trkpt>
      <trkpt lat="45.3036" lon="0.38302">
        <ele>197.09</ele>
        <time>2019-05-05T07:55:57.000Z</time>
      </trkpt>
      <trkpt lat="45.30347" lon="0.38306">
        <ele>197.41</ele>
        <time>2019-05-05T07:56:02.000Z</time>
      </trkpt>
      <trkpt lat="45.3033" lon="0.38311">
        <ele>197.71</ele>
        <time>2019-05-05T07:56:07.000Z</time>
      </trkpt>
      <trkpt lat="45.30315" lon="0.38316">
        <ele>198.17</ele>
        <time>2019-05-05T07:56:12.000Z</time>
      </trkpt>
      <trkpt lat="45.30297" lon="0.3832">
        <ele>199.65</ele>
        <time>2019-05-05T07:56:17.000Z</time>
      </trkpt>
      <trkpt lat="45.30281" lon="0.38324">
        <ele>199.73</ele>
        <time>2019-05-05T07:56:22.000Z</time>
      </trkpt>
      <trkpt lat="45.30263" lon="0.3833">
        <ele>199.78</ele>
        <time>2019-05-05T07:56:27.000Z</time>
      </trkpt>
      <trkpt lat="45.30246" lon="0.38336">
        <ele>199.87</ele>
        <time>2019-05-05T07:56:32.000Z</time>
      </trkpt>
      <trkpt lat="45.3023" lon="0.38343">
        <ele>199.99</ele>
        <time>2019-05-05T07:56:37.000Z</time>
      </trkpt>
      <trkpt lat="45.30214" lon="0.38349">
        <ele>199.96</ele>
        <time>2019-05-05T07:56:42.000Z</time>
      </trkpt>
      <trkpt lat="45.30196" lon="0.38357">
        <ele>200.36</ele>
        <time>2019-05-05T07:56:47.000Z</time>
      </trkpt>
      <trkpt lat="45.30176" lon="0.38364">
        <ele>201.05</ele>
        <time>2019-05-05T07:56:52.000Z</time>
      </trkpt>
      <trkpt lat="45.30157" lon="0.38373">
        <ele>201.16</ele>
        <time>2019-05-05T07:56:57.000Z</time>
      </trkpt>
      <trkpt lat="45.3014" lon="0.38378">
        <ele>201.12</ele>
        <time>2019-05-05T07:57:02.000Z</time>
      </trkpt>
      <trkpt lat="45.30121" lon="0.38381">
        <ele>200.08</ele>
        <time>2019-05-05T07:57:07.000Z</time>
      </trkpt>
      <trkpt lat="45.30099" lon="0.38377">
        <ele>198.32</ele>
        <time>2019-05-05T07:57:12.000Z</time>
      </trkpt>
      <trkpt lat="45.30075" lon="0.38376">
        <ele>198</ele>
        <time>2019-05-05T07:57:17.000Z</time>
      </trkpt>
      <trkpt lat="45.30052" lon="0.3838">
        <ele>197.59</ele>
        <time>2019-05-05T07:57:22.000Z</time>
      </trkpt>
      <trkpt lat="45.30031" lon="0.38387">
        <ele>196.37</ele>
        <time>2019-05-05T07:57:27.000Z</time>
      </trkpt>
      <trkpt lat="45.30013" lon="0.38395">
        <ele>195.9</ele>
        <time>2019-05-05T07:57:32.000Z</time>
      </trkpt>
      <trkpt lat="45.29994" lon="0.38401">
        <ele>195.86</ele>
        <time>2019-05-05T07:57:37.000Z</time>
      </trkpt>
      <trkpt lat="45.29975" lon="0.38409">
        <ele>197.35</ele>
        <time>2019-05-05T07:57:42.000Z</time>
      </trkpt>
      <trkpt lat="45.29956" lon="0.38412">
        <ele>197.15</ele>
        <time>2019-05-05T07:57:47.000Z</time>
      </trkpt>
      <trkpt lat="45.2994" lon="0.38415">
        <ele>196.98</ele>
        <time>2019-05-05T07:57:52.000Z</time>
      </trkpt>
      <trkpt lat="45.29926" lon="0.38416">
        <ele>197</ele>
        <time>2019-05-05T07:57:57.000Z</time>
      </trkpt>
      <trkpt lat="45.29909" lon="0.38421">
        <ele>197.14</ele>
        <time>2019-05-05T07:58:02.000Z</time>
      </trkpt>
      <trkpt lat="45.29892" lon="0.38429">
        <ele>197.22</ele>
        <time>2019-05-05T07:58:07.000Z</time>
      </trkpt>
      <trkpt lat="45.29876" lon="0.38436">
        <ele>197.15</ele>
        <time>2019-05-05T07:58:12.000Z</time>
      </trkpt>
      <trkpt lat="45.29858" lon="0.38441">
        <ele>197.01</ele>
        <time>2019-05-05T07:58:17.000Z</time>
      </trkpt>
      <trkpt lat="45.29843" lon="0.38444">
        <ele>196.99</ele>
        <time>2019-05-05T07:58:22.000Z</time>
      </trkpt>
      <trkpt lat="45.29828" lon="0.38448">
        <ele>197.04</ele>
        <time>2019-05-05T07:58:27.000Z</time>
      </trkpt>
      <trkpt lat="45.29812" lon="0.38454">
        <ele>197.04</ele>
        <time>2019-05-05T07:58:32.000Z</time>
      </trkpt>
      <trkpt lat="45.29799" lon="0.38459">
        <ele>197.33</ele>
        <time>2019-05-05T07:58:37.000Z</time>
      </trkpt>
      <trkpt lat="45.29784" lon="0.38463">
        <ele>197.58</ele>
        <time>2019-05-05T07:58:42.000Z</time>
      </trkpt>
      <trkpt lat="45.29771" lon="0.38466">
        <ele>197.43</ele>
        <time>2019-05-05T07:58:47.000Z</time>
      </trkpt>
      <trkpt lat="45.29757" lon="0.3847">
        <ele>197.41</ele>
        <time>2019-05-05T07:58:52.000Z</time>
      </trkpt>
      <trkpt lat="45.29741" lon="0.3847">
        <ele>197.24</ele>
        <time>2019-05-05T07:58:57.000Z</time>
      </trkpt>
      <trkpt lat="45.29726" lon="0.38468">
        <ele>197.12</ele>
        <time>2019-05-05T07:59:02.000Z</time>
      </trkpt>
      <trkpt lat="45.29706" lon="0.38464">
        <ele>196.66</ele>
        <time>2019-05-05T07:59:07.000Z</time>
      </trkpt>
      <trkpt lat="45.29687" lon="0.3846">
        <ele>195.72</ele>
        <time>2019-05-05T07:59:12.000Z</time>
      </trkpt>
      <trkpt lat="45.2967" lon="0.38458">
        <ele>194.91</ele>
        <time>2019-05-05T07:59:17.000Z</time>
      </trkpt>
      <trkpt lat="45.29653" lon="0.38454">
        <ele>194.75</ele>
        <time>2019-05-05T07:59:22.000Z</time>
      </trkpt>
      <trkpt lat="45.29635" lon="0.38451">
        <ele>194.67</ele>
        <time>2019-05-05T07:59:27.000Z</time>
      </trkpt>
      <trkpt lat="45.29616" lon="0.38448">
        <ele>194.36</ele>
        <time>2019-05-05T07:59:32.000Z</time>
      </trkpt>
      <trkpt lat="45.29602" lon="0.38446">
        <ele>193.93</ele>
        <time>2019-05-05T07:59:37.000Z</time>
      </trkpt>
      <trkpt lat="45.29587" lon="0.38445">
        <ele>193.84</ele>
        <time>2019-05-05T07:59:42.000Z</time>
      </trkpt>
      <trkpt lat="45.29571" lon="0.38444">
        <ele>193.8</ele>
        <time>2019-05-05T07:59:47.000Z</time>
      </trkpt>
      <trkpt lat="45.29552" lon="0.38444">
        <ele>193.79</ele>
        <time>2019-05-05T07:59:52.000Z</time>
      </trkpt>
      <trkpt lat="45.29541" lon="0.38441">
        <ele>193.49</ele>
        <time>2019-05-05T07:59:57.000Z</time>
      </trkpt>
      <trkpt lat="45.29526" lon="0.38441">
        <ele>193.24</ele>
        <time>2019-05-05T08:00:02.000Z</time>
      </trkpt>
      <trkpt lat="45.29511" lon="0.38439">
        <ele>193.01</ele>
        <time>2019-05-05T08:00:07.000Z</time>
      </trkpt>
      <trkpt lat="45.29497" lon="0.38441">
        <ele>192.98</ele>
        <time>2019-05-05T08:00:12.000Z</time>
      </trkpt>
      <trkpt lat="45.29483" lon="0.38439">
        <ele>192.96</ele>
        <time>2019-05-05T08:00:17.000Z</time>
      </trkpt>
      <trkpt lat="45.29469" lon="0.38438">
        <ele>192.95</ele>
        <time>2019-05-05T08:00:22.000Z</time>
      </trkpt>
      <trkpt lat="45.29453" lon="0.38439">
        <ele>193</ele>
        <time>2019-05-05T08:00:27.000Z</time>
      </trkpt>
      <trkpt lat="45.29438" lon="0.3844">
        <ele>192.99</ele>
        <time>2019-05-05T08:00:32.000Z</time>
      </trkpt>
      <trkpt lat="45.29422" lon="0.38441">
        <ele>192.93</ele>
        <time>2019-05-05T08:00:37.000Z</time>
      </trkpt>
      <trkpt lat="45.29407" lon="0.38441">
        <ele>192.93</ele>
        <time>2019-05-05T08:00:42.000Z</time>
      </trkpt>
      <trkpt lat="45.29392" lon="0.38443">
        <ele>192.79</ele>
        <time>2019-05-05T08:00:47.000Z</time>
      </trkpt>
      <trkpt lat="45.29378" lon="0.38442">
        <ele>192.76</ele>
        <time>2019-05-05T08:00:52.000Z</time>
      </trkpt>
      <trkpt lat="45.29365" lon="0.38444">
        <ele>193.07</ele>
        <time>2019-05-05T08:00:57.000Z</time>
      </trkpt>
      <trkpt lat="45.29353" lon="0.38447">
        <ele>193.07</ele>
        <time>2019-05-05T08:01:02.000Z</time>
      </trkpt>
      <trkpt lat="45.29341" lon="0.38449">
        <ele>193.26</ele>
        <time>2019-05-05T08:01:07.000Z</time>
      </trkpt>
      <trkpt lat="45.29325" lon="0.38454">
        <ele>193.36</ele>
        <time>2019-05-05T08:01:12.000Z</time>
      </trkpt>
      <trkpt lat="45.29309" lon="0.38458">
        <ele>193.16</ele>
        <time>2019-05-05T08:01:17.000Z</time>
      </trkpt>
      <trkpt lat="45.29297" lon="0.38462">
        <ele>192.91</ele>
        <time>2019-05-05T08:01:22.000Z</time>
      </trkpt>
      <trkpt lat="45.29283" lon="0.38469">
        <ele>192.68</ele>
        <time>2019-05-05T08:01:27.000Z</time>
      </trkpt>
      <trkpt lat="45.29267" lon="0.38474">
        <ele>192.44</ele>
        <time>2019-05-05T08:01:32.000Z</time>
      </trkpt>
      <trkpt lat="45.29248" lon="0.38476">
        <ele>192.03</ele>
        <time>2019-05-05T08:01:37.000Z</time>
      </trkpt>
      <trkpt lat="45.29225" lon="0.38474">
        <ele>189.77</ele>
        <time>2019-05-05T08:01:42.000Z</time>
      </trkpt>
      <trkpt lat="45.29203" lon="0.38467">
        <ele>188.7</ele>
        <time>2019-05-05T08:01:47.000Z</time>
      </trkpt>
      <trkpt lat="45.29178" lon="0.38456">
        <ele>189.16</ele>
        <time>2019-05-05T08:01:52.000Z</time>
      </trkpt>
      <trkpt lat="45.29149" lon="0.38444">
        <ele>188.93</ele>
        <time>2019-05-05T08:01:57.000Z</time>
      </trkpt>
      <trkpt lat="45.29123" lon="0.38434">
        <ele>188.23</ele>
        <time>2019-05-05T08:02:02.000Z</time>
      </trkpt>
      <trkpt lat="45.29098" lon="0.38422">
        <ele>186.24</ele>
        <time>2019-05-05T08:02:07.000Z</time>
      </trkpt>
      <trkpt lat="45.29077" lon="0.3841">
        <ele>183.33</ele>
        <time>2019-05-05T08:02:12.000Z</time>
      </trkpt>
      <trkpt lat="45.29057" lon="0.38392">
        <ele>182.03</ele>
        <time>2019-05-05T08:02:17.000Z</time>
      </trkpt>
      <trkpt lat="45.29039" lon="0.38376">
        <ele>182.53</ele>
        <time>2019-05-05T08:02:22.000Z</time>
      </trkpt>
      <trkpt lat="45.29024" lon="0.38364">
        <ele>182.98</ele>
        <time>2019-05-05T08:02:27.000Z</time>
      </trkpt>
      <trkpt lat="45.29011" lon="0.38354">
        <ele>183.65</ele>
        <time>2019-05-05T08:02:32.000Z</time>
      </trkpt>
      <trkpt lat="45.29002" lon="0.38345">
        <ele>184.16</ele>
        <time>2019-05-05T08:02:37.000Z</time>
      </trkpt>
      <trkpt lat="45.28992" lon="0.38337">
        <ele>184.66</ele>
        <time>2019-05-05T08:02:42.000Z</time>
      </trkpt>
      <trkpt lat="45.28998" lon="0.38324">
        <ele>185.36</ele>
        <time>2019-05-05T08:02:53.000Z</time>
      </trkpt>
      <trkpt lat="45.29011" lon="0.38312">
        <ele>185.68</ele>
        <time>2019-05-05T08:02:58.000Z</time>
      </trkpt>
      <trkpt lat="45.29024" lon="0.38298">
        <ele>186.14</ele>
        <time>2019-05-05T08:03:03.000Z</time>
      </trkpt>
      <trkpt lat="45.29039" lon="0.38284">
        <ele>186.12</ele>
        <time>2019-05-05T08:03:08.000Z</time>
      </trkpt>
      <trkpt lat="45.29047" lon="0.3827">
        <ele>186.26</ele>
        <time>2019-05-05T08:03:13.000Z</time>
      </trkpt>
      <trkpt lat="45.29057" lon="0.38255">
        <ele>186.16</ele>
        <time>2019-05-05T08:03:18.000Z</time>
      </trkpt>
      <trkpt lat="45.29069" lon="0.38239">
        <ele>186.21</ele>
        <time>2019-05-05T08:03:23.000Z</time>
      </trkpt>
      <trkpt lat="45.29083" lon="0.38228">
        <ele>185.95</ele>
        <time>2019-05-05T08:03:28.000Z</time>
      </trkpt>
      <trkpt lat="45.29101" lon="0.38209">
        <ele>184.91</ele>
        <time>2019-05-05T08:03:33.000Z</time>
      </trkpt>
      <trkpt lat="45.29112" lon="0.38192">
        <ele>184.66</ele>
        <time>2019-05-05T08:03:38.000Z</time>
      </trkpt>
      <trkpt lat="45.2912" lon="0.38181">
        <ele>184.27</ele>
        <time>2019-05-05T08:03:43.000Z</time>
      </trkpt>
      <trkpt lat="45.29129" lon="0.38178">
        <ele>180.36</ele>
        <time>2019-05-05T08:04:52.000Z</time>
      </trkpt>
      <trkpt lat="45.29142" lon="0.38169">
        <ele>180.23</ele>
        <time>2019-05-05T08:04:57.000Z</time>
      </trkpt>
      <trkpt lat="45.29154" lon="0.38157">
        <ele>180.26</ele>
        <time>2019-05-05T08:05:02.000Z</time>
      </trkpt>
      <trkpt lat="45.29168" lon="0.38144">
        <ele>179.98</ele>
        <time>2019-05-05T08:05:07.000Z</time>
      </trkpt>
      <trkpt lat="45.2918" lon="0.3813">
        <ele>179.51</ele>
        <time>2019-05-05T08:05:12.000Z</time>
      </trkpt>
      <trkpt lat="45.292" lon="0.38108">
        <ele>173.76</ele>
        <time>2019-05-05T08:05:17.000Z</time>
      </trkpt>
      <trkpt lat="45.29214" lon="0.38093">
        <ele>172.31</ele>
        <time>2019-05-05T08:05:22.000Z</time>
      </trkpt>
      <trkpt lat="45.2923" lon="0.38076">
        <ele>168.49</ele>
        <time>2019-05-05T08:05:27.000Z</time>
      </trkpt>
      <trkpt lat="45.29245" lon="0.38054">
        <ele>165.13</ele>
        <time>2019-05-05T08:05:32.000Z</time>
      </trkpt>
      <trkpt lat="45.29261" lon="0.38033">
        <ele>158.65</ele>
        <time>2019-05-05T08:05:37.000Z</time>
      </trkpt>
      <trkpt lat="45.29281" lon="0.38021">
        <ele>154.65</ele>
        <time>2019-05-05T08:05:42.000Z</time>
      </trkpt>
      <trkpt lat="45.29305" lon="0.38002">
        <ele>153.56</ele>
        <time>2019-05-05T08:05:47.000Z</time>
      </trkpt>
      <trkpt lat="45.29325" lon="0.3797">
        <ele>150.78</ele>
        <time>2019-05-05T08:05:52.000Z</time>
      </trkpt>
      <trkpt lat="45.29337" lon="0.37947">
        <ele>149.13</ele>
        <time>2019-05-05T08:05:57.000Z</time>
      </trkpt>
      <trkpt lat="45.29346" lon="0.37932">
        <ele>149.24</ele>
        <time>2019-05-05T08:06:02.000Z</time>
      </trkpt>
      <trkpt lat="45.29352" lon="0.37921">
        <ele>149.3</ele>
        <time>2019-05-05T08:06:07.000Z</time>
      </trkpt>
      <trkpt lat="45.29362" lon="0.37911">
        <ele>149.65</ele>
        <time>2019-05-05T08:06:12.000Z</time>
      </trkpt>
      <trkpt lat="45.29372" lon="0.37898">
        <ele>149.88</ele>
        <time>2019-05-05T08:06:17.000Z</time>
      </trkpt>
      <trkpt lat="45.29381" lon="0.37885">
        <ele>150.08</ele>
        <time>2019-05-05T08:06:22.000Z</time>
      </trkpt>
      <trkpt lat="45.29389" lon="0.37873">
        <ele>150.18</ele>
        <time>2019-05-05T08:06:27.000Z</time>
      </trkpt>
      <trkpt lat="45.29396" lon="0.37865">
        <ele>150.4</ele>
        <time>2019-05-05T08:06:32.000Z</time>
      </trkpt>
      <trkpt lat="45.29404" lon="0.37856">
        <ele>151.32</ele>
        <time>2019-05-05T08:06:44.000Z</time>
      </trkpt>
      <trkpt lat="45.2941" lon="0.37847">
        <ele>151.89</ele>
        <time>2019-05-05T08:06:52.000Z</time>
      </trkpt>
      <trkpt lat="45.29417" lon="0.37838">
        <ele>152.82</ele>
        <time>2019-05-05T08:07:01.000Z</time>
      </trkpt>
      <trkpt lat="45.29425" lon="0.37829">
        <ele>154</ele>
        <time>2019-05-05T08:07:10.000Z</time>
      </trkpt>
      <trkpt lat="45.29431" lon="0.3782">
        <ele>155.26</ele>
        <time>2019-05-05T08:07:19.000Z</time>
      </trkpt>
      <trkpt lat="45.29438" lon="0.37811">
        <ele>156.28</ele>
        <time>2019-05-05T08:07:27.000Z</time>
      </trkpt>
      <trkpt lat="45.29445" lon="0.37802">
        <ele>157.67</ele>
        <time>2019-05-05T08:07:41.000Z</time>
      </trkpt>
      <trkpt lat="45.29452" lon="0.37792">
        <ele>159.46</ele>
        <time>2019-05-05T08:07:54.000Z</time>
      </trkpt>
      <trkpt lat="45.29458" lon="0.3778">
        <ele>160.97</ele>
        <time>2019-05-05T08:08:02.000Z</time>
      </trkpt>
      <trkpt lat="45.29464" lon="0.3777">
        <ele>162.31</ele>
        <time>2019-05-05T08:08:13.000Z</time>
      </trkpt>
      <trkpt lat="45.29463" lon="0.37756">
        <ele>163.47</ele>
        <time>2019-05-05T08:10:22.000Z</time>
      </trkpt>
      <trkpt lat="45.29461" lon="0.37739">
        <ele>163.87</ele>
        <time>2019-05-05T08:10:27.000Z</time>
      </trkpt>
      <trkpt lat="45.29462" lon="0.37703">
        <ele>162.18</ele>
        <time>2019-05-05T08:10:32.000Z</time>
      </trkpt>
      <trkpt lat="45.29467" lon="0.37665">
        <ele>158.21</ele>
        <time>2019-05-05T08:10:37.000Z</time>
      </trkpt>
      <trkpt lat="45.2947" lon="0.37638">
        <ele>156.99</ele>
        <time>2019-05-05T08:10:42.000Z</time>
      </trkpt>
      <trkpt lat="45.29459" lon="0.37622">
        <ele>155.63</ele>
        <time>2019-05-05T08:10:47.000Z</time>
      </trkpt>
      <trkpt lat="45.2944" lon="0.37606">
        <ele>150.71</ele>
        <time>2019-05-05T08:10:52.000Z</time>
      </trkpt>
      <trkpt lat="45.29424" lon="0.37595">
        <ele>149.45</ele>
        <time>2019-05-05T08:10:57.000Z</time>
      </trkpt>
      <trkpt lat="45.29418" lon="0.37583">
        <ele>149.47</ele>
        <time>2019-05-05T08:11:03.000Z</time>
      </trkpt>
      <trkpt lat="45.29421" lon="0.37568">
        <ele>149.52</ele>
        <time>2019-05-05T08:11:08.000Z</time>
      </trkpt>
      <trkpt lat="45.29424" lon="0.37548">
        <ele>149.53</ele>
        <time>2019-05-05T08:11:13.000Z</time>
      </trkpt>
      <trkpt lat="45.29427" lon="0.37527">
        <ele>149.61</ele>
        <time>2019-05-05T08:11:18.000Z</time>
      </trkpt>
      <trkpt lat="45.29423" lon="0.37513">
        <ele>149.65</ele>
        <time>2019-05-05T08:11:26.000Z</time>
      </trkpt>
      <trkpt lat="45.29418" lon="0.37501">
        <ele>150.69</ele>
        <time>2019-05-05T08:11:34.000Z</time>
      </trkpt>
      <trkpt lat="45.29409" lon="0.37498">
        <ele>151.52</ele>
        <time>2019-05-05T08:11:49.000Z</time>
      </trkpt>
      <trkpt lat="45.294" lon="0.37494">
        <ele>152.86</ele>
        <time>2019-05-05T08:11:59.000Z</time>
      </trkpt>
      <trkpt lat="45.29389" lon="0.37491">
        <ele>153.67</ele>
        <time>2019-05-05T08:12:05.000Z</time>
      </trkpt>
      <trkpt lat="45.29379" lon="0.37491">
        <ele>154.29</ele>
        <time>2019-05-05T08:12:12.000Z</time>
      </trkpt>
      <trkpt lat="45.29369" lon="0.37489">
        <ele>154.43</ele>
        <time>2019-05-05T08:12:21.000Z</time>
      </trkpt>
      <trkpt lat="45.29361" lon="0.37484">
        <ele>155.16</ele>
        <time>2019-05-05T08:12:29.000Z</time>
      </trkpt>
      <trkpt lat="45.29351" lon="0.37482">
        <ele>156.21</ele>
        <time>2019-05-05T08:12:38.000Z</time>
      </trkpt>
      <trkpt lat="45.29342" lon="0.37477">
        <ele>156.74</ele>
        <time>2019-05-05T08:12:45.000Z</time>
      </trkpt>
      <trkpt lat="45.29333" lon="0.37474">
        <ele>157.88</ele>
        <time>2019-05-05T08:12:53.000Z</time>
      </trkpt>
      <trkpt lat="45.29324" lon="0.37471">
        <ele>159.88</ele>
        <time>2019-05-05T08:13:03.000Z</time>
      </trkpt>
      <trkpt lat="45.29315" lon="0.37465">
        <ele>161.86</ele>
        <time>2019-05-05T08:13:11.000Z</time>
      </trkpt>
      <trkpt lat="45.29307" lon="0.37457">
        <ele>163.64</ele>
        <time>2019-05-05T08:13:21.000Z</time>
      </trkpt>
      <trkpt lat="45.29299" lon="0.37453">
        <ele>165.52</ele>
        <time>2019-05-05T08:13:36.000Z</time>
      </trkpt>
      <trkpt lat="45.29291" lon="0.37447">
        <ele>166.43</ele>
        <time>2019-05-05T08:13:44.000Z</time>
      </trkpt>
      <trkpt lat="45.29283" lon="0.3744">
        <ele>167.3</ele>
        <time>2019-05-05T08:13:56.000Z</time>
      </trkpt>
      <trkpt lat="45.29279" lon="0.37428">
        <ele>167.59</ele>
        <time>2019-05-05T08:14:07.000Z</time>
      </trkpt>
      <trkpt lat="45.29268" lon="0.37427">
        <ele>168.12</ele>
        <time>2019-05-05T08:14:13.000Z</time>
      </trkpt>
      <trkpt lat="45.29257" lon="0.37427">
        <ele>168.29</ele>
        <time>2019-05-05T08:14:18.000Z</time>
      </trkpt>
      <trkpt lat="45.29245" lon="0.37422">
        <ele>168.53</ele>
        <time>2019-05-05T08:14:23.000Z</time>
      </trkpt>
      <trkpt lat="45.29237" lon="0.37415">
        <ele>169</ele>
        <time>2019-05-05T08:14:29.000Z</time>
      </trkpt>
      <trkpt lat="45.29229" lon="0.37406">
        <ele>169.81</ele>
        <time>2019-05-05T08:14:34.000Z</time>
      </trkpt>
      <trkpt lat="45.29222" lon="0.37396">
        <ele>170.96</ele>
        <time>2019-05-05T08:14:39.000Z</time>
      </trkpt>
      <trkpt lat="45.29212" lon="0.37388">
        <ele>172.09</ele>
        <time>2019-05-05T08:14:45.000Z</time>
      </trkpt>
      <trkpt lat="45.29203" lon="0.37381">
        <ele>172.56</ele>
        <time>2019-05-05T08:14:50.000Z</time>
      </trkpt>
      <trkpt lat="45.29187" lon="0.37376">
        <ele>172.72</ele>
        <time>2019-05-05T08:14:55.000Z</time>
      </trkpt>
      <trkpt lat="45.29172" lon="0.37378">
        <ele>172.78</ele>
        <time>2019-05-05T08:15:00.000Z</time>
      </trkpt>
      <trkpt lat="45.29165" lon="0.37388">
        <ele>172.83</ele>
        <time>2019-05-05T08:15:05.000Z</time>
      </trkpt>
      <trkpt lat="45.29162" lon="0.37406">
        <ele>172.83</ele>
        <time>2019-05-05T08:15:10.000Z</time>
      </trkpt>
      <trkpt lat="45.29159" lon="0.37424">
        <ele>172.32</ele>
        <time>2019-05-05T08:15:15.000Z</time>
      </trkpt>
      <trkpt lat="45.29156" lon="0.37443">
        <ele>171.97</ele>
        <time>2019-05-05T08:15:20.000Z</time>
      </trkpt>
      <trkpt lat="45.29148" lon="0.37463">
        <ele>171.49</ele>
        <time>2019-05-05T08:15:25.000Z</time>
      </trkpt>
      <trkpt lat="45.29137" lon="0.37481">
        <ele>171.05</ele>
        <time>2019-05-05T08:15:30.000Z</time>
      </trkpt>
      <trkpt lat="45.29127" lon="0.37487">
        <ele>170.45</ele>
        <time>2019-05-05T08:15:35.000Z</time>
      </trkpt>
      <trkpt lat="45.29117" lon="0.37484">
        <ele>169.77</ele>
        <time>2019-05-05T08:15:40.000Z</time>
      </trkpt>
      <trkpt lat="45.29106" lon="0.37478">
        <ele>169.69</ele>
        <time>2019-05-05T08:15:45.000Z</time>
      </trkpt>
      <trkpt lat="45.29093" lon="0.37469">
        <ele>169.93</ele>
        <time>2019-05-05T08:15:50.000Z</time>
      </trkpt>
      <trkpt lat="45.29081" lon="0.37458">
        <ele>170.59</ele>
        <time>2019-05-05T08:15:55.000Z</time>
      </trkpt>
      <trkpt lat="45.29072" lon="0.37449">
        <ele>171.14</ele>
        <time>2019-05-05T08:16:00.000Z</time>
      </trkpt>
      <trkpt lat="45.2906" lon="0.37444">
        <ele>171.68</ele>
        <time>2019-05-05T08:16:05.000Z</time>
      </trkpt>
      <trkpt lat="45.29047" lon="0.37441">
        <ele>172.04</ele>
        <time>2019-05-05T08:16:10.000Z</time>
      </trkpt>
      <trkpt lat="45.29037" lon="0.3744">
        <ele>171.98</ele>
        <time>2019-05-05T08:16:15.000Z</time>
      </trkpt>
      <trkpt lat="45.29024" lon="0.37437">
        <ele>172.16</ele>
        <time>2019-05-05T08:16:20.000Z</time>
      </trkpt>
      <trkpt lat="45.29011" lon="0.37432">
        <ele>172.23</ele>
        <time>2019-05-05T08:16:25.000Z</time>
      </trkpt>
      <trkpt lat="45.29001" lon="0.3743">
        <ele>172.39</ele>
        <time>2019-05-05T08:16:30.000Z</time>
      </trkpt>
      <trkpt lat="45.28989" lon="0.37426">
        <ele>172.51</ele>
        <time>2019-05-05T08:16:35.000Z</time>
      </trkpt>
      <trkpt lat="45.28976" lon="0.37419">
        <ele>172.44</ele>
        <time>2019-05-05T08:16:40.000Z</time>
      </trkpt>
      <trkpt lat="45.28966" lon="0.37407">
        <ele>171.99</ele>
        <time>2019-05-05T08:16:45.000Z</time>
      </trkpt>
      <trkpt lat="45.28956" lon="0.37396">
        <ele>171.66</ele>
        <time>2019-05-05T08:16:50.000Z</time>
      </trkpt>
      <trkpt lat="45.28949" lon="0.37387">
        <ele>171.6</ele>
        <time>2019-05-05T08:16:55.000Z</time>
      </trkpt>
      <trkpt lat="45.28941" lon="0.37378">
        <ele>171.85</ele>
        <time>2019-05-05T08:17:00.000Z</time>
      </trkpt>
      <trkpt lat="45.28932" lon="0.3737">
        <ele>172.66</ele>
        <time>2019-05-05T08:17:05.000Z</time>
      </trkpt>
      <trkpt lat="45.28924" lon="0.37361">
        <ele>173.69</ele>
        <time>2019-05-05T08:17:10.000Z</time>
      </trkpt>
      <trkpt lat="45.28914" lon="0.3735">
        <ele>174.7</ele>
        <time>2019-05-05T08:17:15.000Z</time>
      </trkpt>
      <trkpt lat="45.28907" lon="0.37334">
        <ele>175.49</ele>
        <time>2019-05-05T08:17:20.000Z</time>
      </trkpt>
      <trkpt lat="45.289" lon="0.3732">
        <ele>176.2</ele>
        <time>2019-05-05T08:17:25.000Z</time>
      </trkpt>
      <trkpt lat="45.2889" lon="0.37308">
        <ele>176.92</ele>
        <time>2019-05-05T08:17:30.000Z</time>
      </trkpt>
      <trkpt lat="45.28882" lon="0.37297">
        <ele>177.52</ele>
        <time>2019-05-05T08:17:35.000Z</time>
      </trkpt>
      <trkpt lat="45.28875" lon="0.37286">
        <ele>178.44</ele>
        <time>2019-05-05T08:17:40.000Z</time>
      </trkpt>
      <trkpt lat="45.28869" lon="0.37271">
        <ele>178.96</ele>
        <time>2019-05-05T08:17:45.000Z</time>
      </trkpt>
      <trkpt lat="45.28861" lon="0.37257">
        <ele>179.22</ele>
        <time>2019-05-05T08:17:50.000Z</time>
      </trkpt>
      <trkpt lat="45.28859" lon="0.37242">
        <ele>179.3</ele>
        <time>2019-05-05T08:17:55.000Z</time>
      </trkpt>
      <trkpt lat="45.2886" lon="0.37228">
        <ele>179.22</ele>
        <time>2019-05-05T08:18:00.000Z</time>
      </trkpt>
      <trkpt lat="45.2886" lon="0.37214">
        <ele>179.33</ele>
        <time>2019-05-05T08:18:07.000Z</time>
      </trkpt>
      <trkpt lat="45.28863" lon="0.37201">
        <ele>179.03</ele>
        <time>2019-05-05T08:18:15.000Z</time>
      </trkpt>
      <trkpt lat="45.28866" lon="0.37188">
        <ele>178.74</ele>
        <time>2019-05-05T08:18:22.000Z</time>
      </trkpt>
      <trkpt lat="45.2887" lon="0.37175">
        <ele>179.41</ele>
        <time>2019-05-05T08:18:30.000Z</time>
      </trkpt>
      <trkpt lat="45.28873" lon="0.37158">
        <ele>179.44</ele>
        <time>2019-05-05T08:18:35.000Z</time>
      </trkpt>
      <trkpt lat="45.28877" lon="0.37143">
        <ele>179.08</ele>
        <time>2019-05-05T08:18:39.999Z</time>
      </trkpt>
      <trkpt lat="45.28883" lon="0.37131">
        <ele>179.2</ele>
        <time>2019-05-05T08:18:45.999Z</time>
      </trkpt>
      <trkpt lat="45.28887" lon="0.37118">
        <ele>179.48</ele>
        <time>2019-05-05T08:18:50.999Z</time>
      </trkpt>
      <trkpt lat="45.28891" lon="0.37102">
        <ele>179.61</ele>
        <time>2019-05-05T08:18:55.999Z</time>
      </trkpt>
      <trkpt lat="45.28896" lon="0.37086">
        <ele>179.82</ele>
        <time>2019-05-05T08:19:00.999Z</time>
      </trkpt>
      <trkpt lat="45.289" lon="0.37073">
        <ele>179.64</ele>
        <time>2019-05-05T08:19:05.999Z</time>
      </trkpt>
      <trkpt lat="45.28906" lon="0.37061">
        <ele>179.41</ele>
        <time>2019-05-05T08:19:10.999Z</time>
      </trkpt>
      <trkpt lat="45.28913" lon="0.37051">
        <ele>179.51</ele>
        <time>2019-05-05T08:19:15.999Z</time>
      </trkpt>
      <trkpt lat="45.28922" lon="0.37042">
        <ele>180.38</ele>
        <time>2019-05-05T08:19:20.999Z</time>
      </trkpt>
      <trkpt lat="45.2893" lon="0.37033">
        <ele>181.17</ele>
        <time>2019-05-05T08:19:25.999Z</time>
      </trkpt>
      <trkpt lat="45.28937" lon="0.37022">
        <ele>181.6</ele>
        <time>2019-05-05T08:19:30.999Z</time>
      </trkpt>
      <trkpt lat="45.28946" lon="0.37009">
        <ele>181.75</ele>
        <time>2019-05-05T08:19:35.999Z</time>
      </trkpt>
      <trkpt lat="45.28951" lon="0.36996">
        <ele>181.97</ele>
        <time>2019-05-05T08:19:40.999Z</time>
      </trkpt>
      <trkpt lat="45.28954" lon="0.36982">
        <ele>182.39</ele>
        <time>2019-05-05T08:19:45.999Z</time>
      </trkpt>
      <trkpt lat="45.28956" lon="0.36964">
        <ele>182.59</ele>
        <time>2019-05-05T08:19:50.999Z</time>
      </trkpt>
      <trkpt lat="45.28956" lon="0.36944">
        <ele>182.53</ele>
        <time>2019-05-05T08:19:55.999Z</time>
      </trkpt>
      <trkpt lat="45.28957" lon="0.36924">
        <ele>182.52</ele>
        <time>2019-05-05T08:20:00.999Z</time>
      </trkpt>
      <trkpt lat="45.28956" lon="0.36902">
        <ele>182.48</ele>
        <time>2019-05-05T08:20:05.999Z</time>
      </trkpt>
      <trkpt lat="45.28956" lon="0.36877">
        <ele>182.31</ele>
        <time>2019-05-05T08:20:10.999Z</time>
      </trkpt>
      <trkpt lat="45.28958" lon="0.36857">
        <ele>182.36</ele>
        <time>2019-05-05T08:20:15.999Z</time>
      </trkpt>
      <trkpt lat="45.2896" lon="0.36832">
        <ele>182.21</ele>
        <time>2019-05-05T08:20:20.999Z</time>
      </trkpt>
      <trkpt lat="45.28963" lon="0.36811">
        <ele>182.31</ele>
        <time>2019-05-05T08:20:25.999Z</time>
      </trkpt>
      <trkpt lat="45.28969" lon="0.36788">
        <ele>182.36</ele>
        <time>2019-05-05T08:20:30.999Z</time>
      </trkpt>
      <trkpt lat="45.28975" lon="0.3677">
        <ele>182.29</ele>
        <time>2019-05-05T08:20:35.999Z</time>
      </trkpt>
      <trkpt lat="45.28981" lon="0.36754">
        <ele>182.46</ele>
        <time>2019-05-05T08:20:40.999Z</time>
      </trkpt>
      <trkpt lat="45.28987" lon="0.3674">
        <ele>183.17</ele>
        <time>2019-05-05T08:20:45.999Z</time>
      </trkpt>
      <trkpt lat="45.28994" lon="0.36722">
        <ele>183.75</ele>
        <time>2019-05-05T08:20:50.999Z</time>
      </trkpt>
      <trkpt lat="45.29" lon="0.36706">
        <ele>184.3</ele>
        <time>2019-05-05T08:20:55.999Z</time>
      </trkpt>
      <trkpt lat="45.29006" lon="0.36684">
        <ele>184.8</ele>
        <time>2019-05-05T08:21:00.999Z</time>
      </trkpt>
      <trkpt lat="45.29009" lon="0.36666">
        <ele>185.28</ele>
        <time>2019-05-05T08:21:05.999Z</time>
      </trkpt>
      <trkpt lat="45.29012" lon="0.36648">
        <ele>185.85</ele>
        <time>2019-05-05T08:21:10.999Z</time>
      </trkpt>
      <trkpt lat="45.29015" lon="0.36632">
        <ele>186.52</ele>
        <time>2019-05-05T08:21:15.999Z</time>
      </trkpt>
      <trkpt lat="45.29019" lon="0.36617">
        <ele>187.41</ele>
        <time>2019-05-05T08:21:20.999Z</time>
      </trkpt>
      <trkpt lat="45.29023" lon="0.36597">
        <ele>188.02</ele>
        <time>2019-05-05T08:21:25.999Z</time>
      </trkpt>
      <trkpt lat="45.29033" lon="0.36588">
        <ele>188.32</ele>
        <time>2019-05-05T08:21:30.999Z</time>
      </trkpt>
      <trkpt lat="45.29047" lon="0.36589">
        <ele>188.68</ele>
        <time>2019-05-05T08:21:35.999Z</time>
      </trkpt>
      <trkpt lat="45.29062" lon="0.36597">
        <ele>188.97</ele>
        <time>2019-05-05T08:21:40.999Z</time>
      </trkpt>
      <trkpt lat="45.29077" lon="0.36605">
        <ele>189.23</ele>
        <time>2019-05-05T08:21:45.999Z</time>
      </trkpt>
      <trkpt lat="45.29096" lon="0.36615">
        <ele>189.66</ele>
        <time>2019-05-05T08:21:50.999Z</time>
      </trkpt>
      <trkpt lat="45.29119" lon="0.36627">
        <ele>191.24</ele>
        <time>2019-05-05T08:21:55.999Z</time>
      </trkpt>
      <trkpt lat="45.29136" lon="0.3663">
        <ele>191.21</ele>
        <time>2019-05-05T08:22:00.999Z</time>
      </trkpt>
      <trkpt lat="45.29153" lon="0.36645">
        <ele>187.83</ele>
        <time>2019-05-05T08:22:05.999Z</time>
      </trkpt>
      <trkpt lat="45.29175" lon="0.36661">
        <ele>184.89</ele>
        <time>2019-05-05T08:22:10.999Z</time>
      </trkpt>
      <trkpt lat="45.29196" lon="0.36683">
        <ele>183.6</ele>
        <time>2019-05-05T08:22:15.999Z</time>
      </trkpt>
      <trkpt lat="45.29218" lon="0.367">
        <ele>183.76</ele>
        <time>2019-05-05T08:22:20.999Z</time>
      </trkpt>
      <trkpt lat="45.29237" lon="0.36713">
        <ele>182.79</ele>
        <time>2019-05-05T08:22:25.999Z</time>
      </trkpt>
      <trkpt lat="45.29253" lon="0.36725">
        <ele>182.01</ele>
        <time>2019-05-05T08:22:30.999Z</time>
      </trkpt>
      <trkpt lat="45.29273" lon="0.36741">
        <ele>181.61</ele>
        <time>2019-05-05T08:22:35.999Z</time>
      </trkpt>
      <trkpt lat="45.29297" lon="0.36756">
        <ele>180.81</ele>
        <time>2019-05-05T08:22:40.999Z</time>
      </trkpt>
      <trkpt lat="45.29317" lon="0.36771">
        <ele>181.05</ele>
        <time>2019-05-05T08:22:45.999Z</time>
      </trkpt>
      <trkpt lat="45.29338" lon="0.36793">
        <ele>182.06</ele>
        <time>2019-05-05T08:22:50.999Z</time>
      </trkpt>
      <trkpt lat="45.29353" lon="0.36804">
        <ele>182.17</ele>
        <time>2019-05-05T08:22:55.999Z</time>
      </trkpt>
      <trkpt lat="45.29367" lon="0.36798">
        <ele>181.9</ele>
        <time>2019-05-05T08:23:00.999Z</time>
      </trkpt>
      <trkpt lat="45.29387" lon="0.36791">
        <ele>181.31</ele>
        <time>2019-05-05T08:23:05.999Z</time>
      </trkpt>
      <trkpt lat="45.29409" lon="0.36802">
        <ele>178.8</ele>
        <time>2019-05-05T08:23:10.999Z</time>
      </trkpt>
      <trkpt lat="45.29422" lon="0.36816">
        <ele>176.23</ele>
        <time>2019-05-05T08:23:15.999Z</time>
      </trkpt>
      <trkpt lat="45.29426" lon="0.36831">
        <ele>175.63</ele>
        <time>2019-05-05T08:23:20.999Z</time>
      </trkpt>
      <trkpt lat="45.29423" lon="0.36854">
        <ele>172.72</ele>
        <time>2019-05-05T08:23:25.999Z</time>
      </trkpt>
      <trkpt lat="45.29428" lon="0.36895">
        <ele>169.26</ele>
        <time>2019-05-05T08:23:30.999Z</time>
      </trkpt>
      <trkpt lat="45.29425" lon="0.36923">
        <ele>168.07</ele>
        <time>2019-05-05T08:23:35.999Z</time>
      </trkpt>
      <trkpt lat="45.29417" lon="0.36938">
        <ele>168.01</ele>
        <time>2019-05-05T08:23:40.999Z</time>
      </trkpt>
      <trkpt lat="45.29415" lon="0.36969">
        <ele>167.38</ele>
        <time>2019-05-05T08:23:45.999Z</time>
      </trkpt>
      <trkpt lat="45.29424" lon="0.36998">
        <ele>165.86</ele>
        <time>2019-05-05T08:23:50.999Z</time>
      </trkpt>
      <trkpt lat="45.29429" lon="0.37012">
        <ele>165.64</ele>
        <time>2019-05-05T08:23:55.999Z</time>
      </trkpt>
      <trkpt lat="45.2943" lon="0.37028">
        <ele>165.34</ele>
        <time>2019-05-05T08:24:00.999Z</time>
      </trkpt>
      <trkpt lat="45.29426" lon="0.37049">
        <ele>164.73</ele>
        <time>2019-05-05T08:24:05.999Z</time>
      </trkpt>
      <trkpt lat="45.29426" lon="0.37072">
        <ele>163.62</ele>
        <time>2019-05-05T08:24:10.999Z</time>
      </trkpt>
      <trkpt lat="45.29433" lon="0.37098">
        <ele>160.93</ele>
        <time>2019-05-05T08:24:15.999Z</time>
      </trkpt>
      <trkpt lat="45.29437" lon="0.37121">
        <ele>160.09</ele>
        <time>2019-05-05T08:24:20.999Z</time>
      </trkpt>
      <trkpt lat="45.29444" lon="0.37142">
        <ele>159.75</ele>
        <time>2019-05-05T08:24:25.999Z</time>
      </trkpt>
      <trkpt lat="45.29451" lon="0.37164">
        <ele>159.42</ele>
        <time>2019-05-05T08:24:30.999Z</time>
      </trkpt>
      <trkpt lat="45.29461" lon="0.37177">
        <ele>159.22</ele>
        <time>2019-05-05T08:24:35.999Z</time>
      </trkpt>
      <trkpt lat="45.29471" lon="0.37192">
        <ele>159.34</ele>
        <time>2019-05-05T08:24:40.999Z</time>
      </trkpt>
      <trkpt lat="45.29481" lon="0.37197">
        <ele>159.3</ele>
        <time>2019-05-05T08:24:45.999Z</time>
      </trkpt>
      <trkpt lat="45.29493" lon="0.3719">
        <ele>158.97</ele>
        <time>2019-05-05T08:24:50.999Z</time>
      </trkpt>
      <trkpt lat="45.29505" lon="0.37183">
        <ele>158.78</ele>
        <time>2019-05-05T08:24:55.999Z</time>
      </trkpt>
      <trkpt lat="45.29516" lon="0.37172">
        <ele>158.63</ele>
        <time>2019-05-05T08:25:00.999Z</time>
      </trkpt>
      <trkpt lat="45.29526" lon="0.37162">
        <ele>158.28</ele>
        <time>2019-05-05T08:25:05.999Z</time>
      </trkpt>
      <trkpt lat="45.29538" lon="0.37156">
        <ele>157.94</ele>
        <time>2019-05-05T08:25:10.999Z</time>
      </trkpt>
      <trkpt lat="45.29548" lon="0.37154">
        <ele>157.39</ele>
        <time>2019-05-05T08:25:16.999Z</time>
      </trkpt>
      <trkpt lat="45.29554" lon="0.37164">
        <ele>157.49</ele>
        <time>2019-05-05T08:25:23.999Z</time>
      </trkpt>
      <trkpt lat="45.2956" lon="0.37175">
        <ele>157.48</ele>
        <time>2019-05-05T08:25:32.999Z</time>
      </trkpt>
      <trkpt lat="45.29567" lon="0.37185">
        <ele>156.81</ele>
        <time>2019-05-05T08:25:45.999Z</time>
      </trkpt>
      <trkpt lat="45.29568" lon="0.37198">
        <ele>157.11</ele>
        <time>2019-05-05T08:25:55.999Z</time>
      </trkpt>
      <trkpt lat="45.29563" lon="0.37209">
        <ele>158.35</ele>
        <time>2019-05-05T08:26:06.999Z</time>
      </trkpt>
      <trkpt lat="45.29569" lon="0.37219">
        <ele>159.2</ele>
        <time>2019-05-05T08:26:19.999Z</time>
      </trkpt>
      <trkpt lat="45.29578" lon="0.3722">
        <ele>160.36</ele>
        <time>2019-05-05T08:26:32.999Z</time>
      </trkpt>
      <trkpt lat="45.29587" lon="0.37215">
        <ele>160.75</ele>
        <time>2019-05-05T08:26:46.999Z</time>
      </trkpt>
      <trkpt lat="45.29594" lon="0.37207">
        <ele>161.81</ele>
        <time>2019-05-05T08:26:56.999Z</time>
      </trkpt>
      <trkpt lat="45.296" lon="0.37197">
        <ele>163.02</ele>
        <time>2019-05-05T08:27:03.999Z</time>
      </trkpt>
      <trkpt lat="45.29607" lon="0.37188">
        <ele>165.05</ele>
        <time>2019-05-05T08:27:13.999Z</time>
      </trkpt>
      <trkpt lat="45.29615" lon="0.37179">
        <ele>165.57</ele>
        <time>2019-05-05T08:27:19.999Z</time>
      </trkpt>
      <trkpt lat="45.29626" lon="0.37165">
        <ele>166.02</ele>
        <time>2019-05-05T08:27:24.999Z</time>
      </trkpt>
      <trkpt lat="45.29636" lon="0.37153">
        <ele>166.6</ele>
        <time>2019-05-05T08:27:29.999Z</time>
      </trkpt>
      <trkpt lat="45.29645" lon="0.37139">
        <ele>167.5</ele>
        <time>2019-05-05T08:27:34.999Z</time>
      </trkpt>
      <trkpt lat="45.29657" lon="0.37125">
        <ele>168.61</ele>
        <time>2019-05-05T08:27:39.999Z</time>
      </trkpt>
      <trkpt lat="45.29665" lon="0.37115">
        <ele>169.6</ele>
        <time>2019-05-05T08:27:44.999Z</time>
      </trkpt>
      <trkpt lat="45.29673" lon="0.37107">
        <ele>170.98</ele>
        <time>2019-05-05T08:27:50.999Z</time>
      </trkpt>
      <trkpt lat="45.29682" lon="0.37103">
        <ele>173.07</ele>
        <time>2019-05-05T08:28:00.999Z</time>
      </trkpt>
      <trkpt lat="45.29691" lon="0.37097">
        <ele>174.26</ele>
        <time>2019-05-05T08:28:10.999Z</time>
      </trkpt>
      <trkpt lat="45.29699" lon="0.37091">
        <ele>174.66</ele>
        <time>2019-05-05T08:28:16.999Z</time>
      </trkpt>
      <trkpt lat="45.29706" lon="0.37079">
        <ele>175.3</ele>
        <time>2019-05-05T08:28:26.999Z</time>
      </trkpt>
      <trkpt lat="45.29715" lon="0.37066">
        <ele>175.26</ele>
        <time>2019-05-05T08:28:31.999Z</time>
      </trkpt>
      <trkpt lat="45.29725" lon="0.37054">
        <ele>175.04</ele>
        <time>2019-05-05T08:28:36.999Z</time>
      </trkpt>
      <trkpt lat="45.29735" lon="0.37045">
        <ele>174.97</ele>
        <time>2019-05-05T08:28:41.999Z</time>
      </trkpt>
      <trkpt lat="45.29745" lon="0.37036">
        <ele>174.9</ele>
        <time>2019-05-05T08:28:46.999Z</time>
      </trkpt>
      <trkpt lat="45.29755" lon="0.37025">
        <ele>174.92</ele>
        <time>2019-05-05T08:28:51.999Z</time>
      </trkpt>
      <trkpt lat="45.29764" lon="0.37014">
        <ele>174.71</ele>
        <time>2019-05-05T08:28:56.999Z</time>
      </trkpt>
      <trkpt lat="45.29773" lon="0.37001">
        <ele>174.08</ele>
        <time>2019-05-05T08:29:01.999Z</time>
      </trkpt>
      <trkpt lat="45.29781" lon="0.36991">
        <ele>173.35</ele>
        <time>2019-05-05T08:29:06.999Z</time>
      </trkpt>
      <trkpt lat="45.29789" lon="0.36982">
        <ele>172.74</ele>
        <time>2019-05-05T08:29:11.999Z</time>
      </trkpt>
      <trkpt lat="45.29798" lon="0.36972">
        <ele>172.35</ele>
        <time>2019-05-05T08:29:16.999Z</time>
      </trkpt>
      <trkpt lat="45.29806" lon="0.36963">
        <ele>171.99</ele>
        <time>2019-05-05T08:29:21.999Z</time>
      </trkpt>
      <trkpt lat="45.29813" lon="0.36955">
        <ele>171.86</ele>
        <time>2019-05-05T08:29:26.999Z</time>
      </trkpt>
      <trkpt lat="45.29823" lon="0.36947">
        <ele>172.06</ele>
        <time>2019-05-05T08:29:31.999Z</time>
      </trkpt>
      <trkpt lat="45.29831" lon="0.36941">
        <ele>172.01</ele>
        <time>2019-05-05T08:29:36.999Z</time>
      </trkpt>
      <trkpt lat="45.2984" lon="0.36938">
        <ele>171.91</ele>
        <time>2019-05-05T08:29:53.999Z</time>
      </trkpt>
      <trkpt lat="45.29849" lon="0.36938">
        <ele>172.57</ele>
        <time>2019-05-05T08:30:05.999Z</time>
      </trkpt>
      <trkpt lat="45.29859" lon="0.36939">
        <ele>174.14</ele>
        <time>2019-05-05T08:30:19.999Z</time>
      </trkpt>
      <trkpt lat="45.29866" lon="0.36947">
        <ele>176.04</ele>
        <time>2019-05-05T08:30:39.999Z</time>
      </trkpt>
      <trkpt lat="45.29875" lon="0.36943">
        <ele>176.17</ele>
        <time>2019-05-05T08:30:49.999Z</time>
      </trkpt>
      <trkpt lat="45.29882" lon="0.36934">
        <ele>175.89</ele>
        <time>2019-05-05T08:31:13.999Z</time>
      </trkpt>
      <trkpt lat="45.29889" lon="0.36925">
        <ele>175.81</ele>
        <time>2019-05-05T08:31:22.999Z</time>
      </trkpt>
      <trkpt lat="45.29896" lon="0.36917">
        <ele>175.33</ele>
        <time>2019-05-05T08:31:29.999Z</time>
      </trkpt>
      <trkpt lat="45.29904" lon="0.36909">
        <ele>175.04</ele>
        <time>2019-05-05T08:31:38.999Z</time>
      </trkpt>
      <trkpt lat="45.29913" lon="0.36907">
        <ele>174.76</ele>
        <time>2019-05-05T08:31:48.999Z</time>
      </trkpt>
      <trkpt lat="45.29923" lon="0.3691">
        <ele>175.05</ele>
        <time>2019-05-05T08:31:57.999Z</time>
      </trkpt>
      <trkpt lat="45.29931" lon="0.36917">
        <ele>176.16</ele>
        <time>2019-05-05T08:32:08.999Z</time>
      </trkpt>
      <trkpt lat="45.29939" lon="0.36926">
        <ele>177.82</ele>
        <time>2019-05-05T08:32:19.999Z</time>
      </trkpt>
      <trkpt lat="45.29947" lon="0.36934">
        <ele>179.3</ele>
        <time>2019-05-05T08:32:30.999Z</time>
      </trkpt>
      <trkpt lat="45.29953" lon="0.36943">
        <ele>180.57</ele>
        <time>2019-05-05T08:32:43.999Z</time>
      </trkpt>
      <trkpt lat="45.29962" lon="0.36938">
        <ele>182.27</ele>
        <time>2019-05-05T08:33:00.999Z</time>
      </trkpt>
      <trkpt lat="45.29972" lon="0.36928">
        <ele>182.38</ele>
        <time>2019-05-05T08:33:05.999Z</time>
      </trkpt>
      <trkpt lat="45.29981" lon="0.36917">
        <ele>182.04</ele>
        <time>2019-05-05T08:33:10.999Z</time>
      </trkpt>
      <trkpt lat="45.29988" lon="0.36904">
        <ele>181.79</ele>
        <time>2019-05-05T08:33:15.999Z</time>
      </trkpt>
      <trkpt lat="45.29995" lon="0.36895">
        <ele>182.81</ele>
        <time>2019-05-05T08:33:25.999Z</time>
      </trkpt>
      <trkpt lat="45.30005" lon="0.36894">
        <ele>184.78</ele>
        <time>2019-05-05T08:33:36.999Z</time>
      </trkpt>
      <trkpt lat="45.30013" lon="0.36898">
        <ele>186.55</ele>
        <time>2019-05-05T08:33:46.999Z</time>
      </trkpt>
      <trkpt lat="45.30022" lon="0.36902">
        <ele>187.74</ele>
        <time>2019-05-05T08:33:55.999Z</time>
      </trkpt>
      <trkpt lat="45.3003" lon="0.36894">
        <ele>195.35</ele>
        <time>2019-05-05T08:36:09.999Z</time>
      </trkpt>
      <trkpt lat="45.30036" lon="0.36884">
        <ele>195.36</ele>
        <time>2019-05-05T08:36:21.999Z</time>
      </trkpt>
      <trkpt lat="45.30044" lon="0.36878">
        <ele>195.65</ele>
        <time>2019-05-05T08:36:28.999Z</time>
      </trkpt>
      <trkpt lat="45.30053" lon="0.36873">
        <ele>195.84</ele>
        <time>2019-05-05T08:36:33.999Z</time>
      </trkpt>
      <trkpt lat="45.30063" lon="0.36881">
        <ele>196.47</ele>
        <time>2019-05-05T08:36:38.999Z</time>
      </trkpt>
      <trkpt lat="45.30071" lon="0.36893">
        <ele>196.7</ele>
        <time>2019-05-05T08:36:43.999Z</time>
      </trkpt>
      <trkpt lat="45.30076" lon="0.36909">
        <ele>196.85</ele>
        <time>2019-05-05T08:36:48.999Z</time>
      </trkpt>
      <trkpt lat="45.3008" lon="0.36919">
        <ele>196.95</ele>
        <time>2019-05-05T08:36:53.999Z</time>
      </trkpt>
      <trkpt lat="45.30086" lon="0.3693">
        <ele>197.05</ele>
        <time>2019-05-05T08:36:58.999Z</time>
      </trkpt>
      <trkpt lat="45.30095" lon="0.36936">
        <ele>197.07</ele>
        <time>2019-05-05T08:37:04.999Z</time>
      </trkpt>
      <trkpt lat="45.30099" lon="0.36948">
        <ele>196.85</ele>
        <time>2019-05-05T08:37:10.999Z</time>
      </trkpt>
      <trkpt lat="45.30098" lon="0.36963">
        <ele>196.94</ele>
        <time>2019-05-05T08:37:15.999Z</time>
      </trkpt>
      <trkpt lat="45.30089" lon="0.36972">
        <ele>197.37</ele>
        <time>2019-05-05T08:37:20.999Z</time>
      </trkpt>
      <trkpt lat="45.30088" lon="0.36987">
        <ele>197.78</ele>
        <time>2019-05-05T08:37:25.999Z</time>
      </trkpt>
      <trkpt lat="45.30095" lon="0.37007">
        <ele>198.08</ele>
        <time>2019-05-05T08:37:30.999Z</time>
      </trkpt>
      <trkpt lat="45.30109" lon="0.37009">
        <ele>198.2</ele>
        <time>2019-05-05T08:37:35.999Z</time>
      </trkpt>
      <trkpt lat="45.30124" lon="0.37003">
        <ele>198.16</ele>
        <time>2019-05-05T08:37:40.999Z</time>
      </trkpt>
      <trkpt lat="45.30139" lon="0.36995">
        <ele>197.75</ele>
        <time>2019-05-05T08:37:45.999Z</time>
      </trkpt>
      <trkpt lat="45.3015" lon="0.36987">
        <ele>197.24</ele>
        <time>2019-05-05T08:37:50.999Z</time>
      </trkpt>
      <trkpt lat="45.30163" lon="0.36979">
        <ele>196.87</ele>
        <time>2019-05-05T08:37:55.999Z</time>
      </trkpt>
      <trkpt lat="45.30176" lon="0.36968">
        <ele>196.66</ele>
        <time>2019-05-05T08:38:00.999Z</time>
      </trkpt>
      <trkpt lat="45.30188" lon="0.36956">
        <ele>196.4</ele>
        <time>2019-05-05T08:38:05.999Z</time>
      </trkpt>
      <trkpt lat="45.30199" lon="0.36943">
        <ele>196.11</ele>
        <time>2019-05-05T08:38:10.999Z</time>
      </trkpt>
      <trkpt lat="45.30211" lon="0.36931">
        <ele>195.75</ele>
        <time>2019-05-05T08:38:15.999Z</time>
      </trkpt>
      <trkpt lat="45.30221" lon="0.3692">
        <ele>195.26</ele>
        <time>2019-05-05T08:38:20.999Z</time>
      </trkpt>
      <trkpt lat="45.30233" lon="0.36908">
        <ele>194.74</ele>
        <time>2019-05-05T08:38:25.999Z</time>
      </trkpt>
      <trkpt lat="45.30244" lon="0.36899">
        <ele>194.38</ele>
        <time>2019-05-05T08:38:30.999Z</time>
      </trkpt>
      <trkpt lat="45.30254" lon="0.36892">
        <ele>194.4</ele>
        <time>2019-05-05T08:38:35.999Z</time>
      </trkpt>
      <trkpt lat="45.30264" lon="0.36883">
        <ele>194.55</ele>
        <time>2019-05-05T08:38:40.999Z</time>
      </trkpt>
      <trkpt lat="45.30274" lon="0.36876">
        <ele>194.83</ele>
        <time>2019-05-05T08:38:45.999Z</time>
      </trkpt>
      <trkpt lat="45.30285" lon="0.36868">
        <ele>195.36</ele>
        <time>2019-05-05T08:38:50.999Z</time>
      </trkpt>
      <trkpt lat="45.30296" lon="0.3686">
        <ele>195.81</ele>
        <time>2019-05-05T08:38:55.999Z</time>
      </trkpt>
      <trkpt lat="45.30308" lon="0.36852">
        <ele>196.06</ele>
        <time>2019-05-05T08:39:00.999Z</time>
      </trkpt>
      <trkpt lat="45.30319" lon="0.36844">
        <ele>196.23</ele>
        <time>2019-05-05T08:39:05.999Z</time>
      </trkpt>
      <trkpt lat="45.30331" lon="0.36837">
        <ele>196.5</ele>
        <time>2019-05-05T08:39:10.999Z</time>
      </trkpt>
      <trkpt lat="45.30341" lon="0.36828">
        <ele>196.93</ele>
        <time>2019-05-05T08:39:15.999Z</time>
      </trkpt>
      <trkpt lat="45.30352" lon="0.36814">
        <ele>197.33</ele>
        <time>2019-05-05T08:39:20.999Z</time>
      </trkpt>
      <trkpt lat="45.30361" lon="0.36795">
        <ele>197.65</ele>
        <time>2019-05-05T08:39:25.999Z</time>
      </trkpt>
      <trkpt lat="45.30367" lon="0.36774">
        <ele>197.94</ele>
        <time>2019-05-05T08:39:30.999Z</time>
      </trkpt>
      <trkpt lat="45.30372" lon="0.36748">
        <ele>198.2</ele>
        <time>2019-05-05T08:39:35.999Z</time>
      </trkpt>
      <trkpt lat="45.30376" lon="0.36724">
        <ele>198.2</ele>
        <time>2019-05-05T08:39:40.999Z</time>
      </trkpt>
      <trkpt lat="45.30381" lon="0.36702">
        <ele>198.23</ele>
        <time>2019-05-05T08:39:45.999Z</time>
      </trkpt>
      <trkpt lat="45.30386" lon="0.36679">
        <ele>198.46</ele>
        <time>2019-05-05T08:39:50.999Z</time>
      </trkpt>
      <trkpt lat="45.30391" lon="0.36656">
        <ele>198.72</ele>
        <time>2019-05-05T08:39:55.999Z</time>
      </trkpt>
      <trkpt lat="45.30395" lon="0.36631">
        <ele>198.88</ele>
        <time>2019-05-05T08:40:00.999Z</time>
      </trkpt>
      <trkpt lat="45.30398" lon="0.36607">
        <ele>198.88</ele>
        <time>2019-05-05T08:40:05.999Z</time>
      </trkpt>
      <trkpt lat="45.30401" lon="0.36583">
        <ele>198.93</ele>
        <time>2019-05-05T08:40:10.999Z</time>
      </trkpt>
      <trkpt lat="45.30403" lon="0.3656">
        <ele>199.11</ele>
        <time>2019-05-05T08:40:15.999Z</time>
      </trkpt>
      <trkpt lat="45.30404" lon="0.36536">
        <ele>199.31</ele>
        <time>2019-05-05T08:40:20.999Z</time>
      </trkpt>
      <trkpt lat="45.30405" lon="0.36512">
        <ele>199.56</ele>
        <time>2019-05-05T08:40:25.999Z</time>
      </trkpt>
      <trkpt lat="45.30406" lon="0.36489">
        <ele>199.87</ele>
        <time>2019-05-05T08:40:30.999Z</time>
      </trkpt>
      <trkpt lat="45.30408" lon="0.36466">
        <ele>200.35</ele>
        <time>2019-05-05T08:40:35.999Z</time>
      </trkpt>
      <trkpt lat="45.30409" lon="0.36442">
        <ele>200.92</ele>
        <time>2019-05-05T08:40:40.999Z</time>
      </trkpt>
      <trkpt lat="45.30408" lon="0.36418">
        <ele>201.33</ele>
        <time>2019-05-05T08:40:45.999Z</time>
      </trkpt>
      <trkpt lat="45.30409" lon="0.36393">
        <ele>201.5</ele>
        <time>2019-05-05T08:40:50.999Z</time>
      </trkpt>
      <trkpt lat="45.30409" lon="0.36368">
        <ele>201.9</ele>
        <time>2019-05-05T08:40:55.999Z</time>
      </trkpt>
      <trkpt lat="45.30408" lon="0.36343">
        <ele>203.94</ele>
        <time>2019-05-05T08:41:00.999Z</time>
      </trkpt>
      <trkpt lat="45.30408" lon="0.36317">
        <ele>204.87</ele>
        <time>2019-05-05T08:41:05.999Z</time>
      </trkpt>
      <trkpt lat="45.30408" lon="0.36293">
        <ele>205.2</ele>
        <time>2019-05-05T08:41:10.999Z</time>
      </trkpt>
      <trkpt lat="45.30409" lon="0.36266">
        <ele>205.4</ele>
        <time>2019-05-05T08:41:15.999Z</time>
      </trkpt>
      <trkpt lat="45.3041" lon="0.36241">
        <ele>205.37</ele>
        <time>2019-05-05T08:41:20.999Z</time>
      </trkpt>
      <trkpt lat="45.30412" lon="0.36219">
        <ele>205.34</ele>
        <time>2019-05-05T08:41:25.999Z</time>
      </trkpt>
      <trkpt lat="45.30414" lon="0.362">
        <ele>205.46</ele>
        <time>2019-05-05T08:41:30.999Z</time>
      </trkpt>
      <trkpt lat="45.30415" lon="0.36182">
        <ele>205.4</ele>
        <time>2019-05-05T08:41:35.999Z</time>
      </trkpt>
      <trkpt lat="45.30417" lon="0.36168">
        <ele>205.23</ele>
        <time>2019-05-05T08:41:41.999Z</time>
      </trkpt>
      <trkpt lat="45.30421" lon="0.36156">
        <ele>206.08</ele>
        <time>2019-05-05T08:41:53.999Z</time>
      </trkpt>
      <trkpt lat="45.30425" lon="0.36142">
        <ele>206.78</ele>
        <time>2019-05-05T08:41:59.999Z</time>
      </trkpt>
      <trkpt lat="45.30426" lon="0.3612">
        <ele>207.22</ele>
        <time>2019-05-05T08:42:04.999Z</time>
      </trkpt>
      <trkpt lat="45.3043" lon="0.36101">
        <ele>207.64</ele>
        <time>2019-05-05T08:42:09.999Z</time>
      </trkpt>
      <trkpt lat="45.30435" lon="0.36084">
        <ele>208.12</ele>
        <time>2019-05-05T08:42:14.999Z</time>
      </trkpt>
      <trkpt lat="45.30439" lon="0.36068">
        <ele>208.49</ele>
        <time>2019-05-05T08:42:19.999Z</time>
      </trkpt>
      <trkpt lat="45.30441" lon="0.36053">
        <ele>209.05</ele>
        <time>2019-05-05T08:42:24.999Z</time>
      </trkpt>
      <trkpt lat="45.30444" lon="0.36038">
        <ele>209.82</ele>
        <time>2019-05-05T08:42:30.999Z</time>
      </trkpt>
      <trkpt lat="45.30448" lon="0.36026">
        <ele>210.96</ele>
        <time>2019-05-05T08:42:35.999Z</time>
      </trkpt>
      <trkpt lat="45.30452" lon="0.36013">
        <ele>212.21</ele>
        <time>2019-05-05T08:42:41.999Z</time>
      </trkpt>
      <trkpt lat="45.30455" lon="0.35999">
        <ele>213.2</ele>
        <time>2019-05-05T08:42:50.999Z</time>
      </trkpt>
      <trkpt lat="45.30455" lon="0.35985">
        <ele>213.89</ele>
        <time>2019-05-05T08:43:00.999Z</time>
      </trkpt>
      <trkpt lat="45.30464" lon="0.35985">
        <ele>214.5</ele>
        <time>2019-05-05T08:43:08.999Z</time>
      </trkpt>
      <trkpt lat="45.30477" lon="0.35988">
        <ele>215.43</ele>
        <time>2019-05-05T08:43:13.999Z</time>
      </trkpt>
      <trkpt lat="45.30489" lon="0.35988">
        <ele>216.17</ele>
        <time>2019-05-05T08:43:18.999Z</time>
      </trkpt>
      <trkpt lat="45.30501" lon="0.35988">
        <ele>216.57</ele>
        <time>2019-05-05T08:43:23.999Z</time>
      </trkpt>
      <trkpt lat="45.3051" lon="0.35983">
        <ele>217.08</ele>
        <time>2019-05-05T08:43:28.999Z</time>
      </trkpt>
      <trkpt lat="45.30519" lon="0.3598">
        <ele>217.47</ele>
        <time>2019-05-05T08:43:35.999Z</time>
      </trkpt>
      <trkpt lat="45.30527" lon="0.35969">
        <ele>217.58</ele>
        <time>2019-05-05T08:43:42.999Z</time>
      </trkpt>
      <trkpt lat="45.30535" lon="0.3596">
        <ele>217.59</ele>
        <time>2019-05-05T08:43:47.999Z</time>
      </trkpt>
      <trkpt lat="45.30542" lon="0.35953">
        <ele>217.05</ele>
        <time>2019-05-05T08:44:04.999Z</time>
      </trkpt>
      <trkpt lat="45.30545" lon="0.3594">
        <ele>216.32</ele>
        <time>2019-05-05T08:44:34.999Z</time>
      </trkpt>
      <trkpt lat="45.30539" lon="0.3593">
        <ele>216.77</ele>
        <time>2019-05-05T08:44:42.999Z</time>
      </trkpt>
      <trkpt lat="45.30532" lon="0.35921">
        <ele>217.07</ele>
        <time>2019-05-05T08:44:48.999Z</time>
      </trkpt>
      <trkpt lat="45.30525" lon="0.35912">
        <ele>217.08</ele>
        <time>2019-05-05T08:44:53.999Z</time>
      </trkpt>
      <trkpt lat="45.30516" lon="0.35908">
        <ele>217.17</ele>
        <time>2019-05-05T08:44:59.999Z</time>
      </trkpt>
      <trkpt lat="45.30513" lon="0.35893">
        <ele>217.67</ele>
        <time>2019-05-05T08:45:06.999Z</time>
      </trkpt>
      <trkpt lat="45.30513" lon="0.35878">
        <ele>218.17</ele>
        <time>2019-05-05T08:45:12.999Z</time>
      </trkpt>
      <trkpt lat="45.30509" lon="0.35867">
        <ele>218.33</ele>
        <time>2019-05-05T08:45:20.999Z</time>
      </trkpt>
      <trkpt lat="45.30513" lon="0.35879">
        <ele>218.28</ele>
        <time>2019-05-05T08:45:28.999Z</time>
      </trkpt>
      <trkpt lat="45.30517" lon="0.35891">
        <ele>219.25</ele>
        <time>2019-05-05T08:45:35.999Z</time>
      </trkpt>
      <trkpt lat="45.30521" lon="0.35906">
        <ele>219.65</ele>
        <time>2019-05-05T08:45:41.999Z</time>
      </trkpt>
      <trkpt lat="45.30526" lon="0.35919">
        <ele>220.03</ele>
        <time>2019-05-05T08:45:47.999Z</time>
      </trkpt>
      <trkpt lat="45.30536" lon="0.35931">
        <ele>220.39</ele>
        <time>2019-05-05T08:45:52.999Z</time>
      </trkpt>
      <trkpt lat="45.30542" lon="0.35941">
        <ele>220.67</ele>
        <time>2019-05-05T08:45:57.999Z</time>
      </trkpt>
      <trkpt lat="45.3054" lon="0.35956">
        <ele>220.9</ele>
        <time>2019-05-05T08:46:02.999Z</time>
      </trkpt>
      <trkpt lat="45.30535" lon="0.35966">
        <ele>220.86</ele>
        <time>2019-05-05T08:46:07.999Z</time>
      </trkpt>
      <trkpt lat="45.30526" lon="0.35974">
        <ele>220.76</ele>
        <time>2019-05-05T08:46:13.999Z</time>
      </trkpt>
      <trkpt lat="45.30518" lon="0.35979">
        <ele>220.34</ele>
        <time>2019-05-05T08:46:21.999Z</time>
      </trkpt>
      <trkpt lat="45.30509" lon="0.35983">
        <ele>220.53</ele>
        <time>2019-05-05T08:46:27.999Z</time>
      </trkpt>
      <trkpt lat="45.305" lon="0.35988">
        <ele>220.89</ele>
        <time>2019-05-05T08:46:33.999Z</time>
      </trkpt>
      <trkpt lat="45.30493" lon="0.35996">
        <ele>221.36</ele>
        <time>2019-05-05T08:46:45.999Z</time>
      </trkpt>
      <trkpt lat="45.30488" lon="0.36004">
        <ele>221.4</ele>
        <time>2019-05-05T08:48:38.999Z</time>
      </trkpt>
    </trkseg>
  </trk>
</gpx>